Flight Track Log - Related Links

Times and Time Zones

All times are in EDT time to prevent confusion due to time zone crossing. See the RJA264 flight status page for this flight to view local times or setup timezone preferences in your user account.

Time Position Orientation Groundspeed Altitude Reporting Facility
EDT Latitude Longitude Course Direction KTS MPH feet Rate Location/Type
Wed 11:10:37 PM 41.9690 -87.8720 90° East 171 197 1,000  Level FlightAware ADS-B
Wed 11:10:52 PM 41.9720 -87.8590 73° East 171 197 1,300 1,400 Climbing FlightAware ADS-B
Wed 11:11:07 PM 41.9810 -87.8460 47° Northeast 173 199 1,700 1,467 Climbing FlightAware ADS-B
Wed 11:11:37 PM 42.0010 -87.8280 34° Northeast 176 203 2,400 1,309 Climbing FlightAware ADS-B
Wed 11:12:02 PM 42.0190 -87.8110 35° Northeast 179 206 2,900 1,200 Climbing FlightAware ADS-B
Wed 11:12:17 PM 42.0280 -87.8020 37° Northeast 177 204 3,200 1,200 Climbing FlightAware ADS-B
Wed 11:12:42 PM 42.0440 -87.7860 37° Northeast 180 207 3,700 900 Climbing FlightAware ADS-B
Wed 11:12:57 PM 42.0550 -87.7750 37° Northeast 190 219 3,800 400 Climbing FlightAware ADS-B
Wed 11:13:27 PM 42.0800 -87.7620 21° North 211 243 4,000 500 Climbing FlightAware ADS-B
Wed 11:13:57 PM 42.1110 -87.7640 357° North 239 275 4,300 655 Climbing FlightAware ADS-B
Wed 11:14:22 PM 42.1410 -87.7670 356° North 263 303 4,600 900 Climbing FlightAware ADS-B
Wed 11:14:37 PM 42.1590 -87.7680 358° North 272 313 4,900 1,600 Climbing FlightAware ADS-B
Wed 11:15:07 PM 42.1980 -87.7720 356° North 281 323 5,800 2,182 Climbing FlightAware ADS-B
Wed 11:15:32 PM 42.2310 -87.7740 357° North 274 315 6,900 2,291 Climbing FlightAware ADS-B
Wed 11:16:02 PM 42.2690 -87.7750 359° North 274 315 7,900 2,000 Climbing FlightAware ADS-B
Wed 11:16:17 PM 42.2870 -87.7760 358° North 275 316 8,400 1,950 Climbing FlightAware ADS-B
Wed 11:16:42 PM 42.3200 -87.7780 357° North 276 318 9,200 1,754 Climbing FlightAware ADS-B
Wed 11:17:22 PM 42.3710 -87.7800 358° North 280 322 10,300 1,412 Climbing FlightAware ADS-B
Wed 11:18:07 PM 42.4300 -87.7830 358° North 298 343 11,200 1,029 Climbing FlightAware ADS-B
Wed 11:18:32 PM 42.4640 -87.7740 11° North 318 366 11,500 600 Climbing FlightAware ADS-B
Wed 11:19:17 PM 42.5320 -87.7480 16° North 353 406 11,900 1,059 Climbing FlightAware ADS-B
Wed 11:19:57 PM 42.5970 -87.7230 16° North 359 413 13,000 1,624 Climbing FlightAware ADS-B
Wed 11:20:42 PM 42.6650 -87.6970 16° North 361 415 14,200 1,482 Climbing FlightAware ADS-B
Wed 11:21:22 PM 42.7330 -87.6710 16° North 371 427 15,100 1,412 Climbing FlightAware ADS-B
Wed 11:22:07 PM 42.8070 -87.6420 16° North 378 435 16,200 1,412 Climbing FlightAware ADS-B
Wed 11:22:47 PM 42.8720 -87.5950 28° Northeast 390 449 17,100 1,350 Climbing FlightAware ADS-B
Wed 11:23:27 PM 42.9320 -87.5440 32° Northeast 396 456 18,000 1,412 Climbing FlightAware ADS-B
Wed 11:24:12 PM 43.0050 -87.4800 33° Northeast 400 460 19,100 1,412 Climbing FlightAware ADS-B
Wed 11:24:52 PM 43.0670 -87.4270 32° Northeast 405 466 20,000 1,275 Climbing FlightAware ADS-B
Wed 11:25:32 PM 43.1310 -87.3700 33° Northeast 411 473 20,800 1,200 Climbing FlightAware ADS-B
Wed 11:26:17 PM 43.2050 -87.3060 32° Northeast 414 476 21,700 1,129 Climbing FlightAware ADS-B
Wed 11:26:57 PM 43.2680 -87.2510 32° Northeast 418 481 22,400 988 Climbing FlightAware ADS-B
Wed 11:27:42 PM 43.3410 -87.1870 33° Northeast 422 486 23,100 988 Climbing FlightAware ADS-B
Wed 11:28:22 PM 43.4070 -87.1290 33° Northeast 424 488 23,800 1,059 Climbing FlightAware ADS-B
Wed 11:29:07 PM 43.4840 -87.0610 33° Northeast 427 491 24,600 918 Climbing FlightAware ADS-B
Wed 11:29:47 PM 43.5430 -87.0090 33° Northeast 429 494 25,100 825 Climbing FlightAware ADS-B
Wed 11:30:27 PM 43.6170 -86.9440 32° Northeast 431 496 25,700 847 Climbing FlightAware ADS-B
Wed 11:31:12 PM 43.6880 -86.8810 33° Northeast 433 498 26,300 706 Climbing FlightAware ADS-B
Wed 11:31:52 PM 43.7590 -86.8180 33° Northeast 436 502 26,700 635 Climbing FlightAware ADS-B
Wed 11:32:37 PM 43.8380 -86.7470 33° Northeast 441 507 27,200 706 Climbing FlightAware ADS-B
Wed 11:33:17 PM 43.9040 -86.6880 33° Northeast 443 510 27,700 675 Climbing FlightAware ADS-B
Wed 11:33:57 PM 43.9710 -86.6280 33° Northeast 446 513 28,100 635 Climbing FlightAware ADS-B
Wed 11:34:42 PM 44.0520 -86.5550 33° Northeast 448 516 28,600 565 Climbing FlightAware ADS-B
Wed 11:35:22 PM 44.1190 -86.4940 33° Northeast 451 519 28,900 565 Climbing FlightAware ADS-B
Wed 11:36:07 PM 44.2020 -86.4180 33° Northeast 452 520 29,400 565 Climbing FlightAware ADS-B
Wed 11:36:47 PM 44.2700 -86.3560 33° Northeast 455 524 29,700 525 Climbing FlightAware ADS-B
Wed 11:37:27 PM 44.3420 -86.2910 33° Northeast 455 524 30,100 494 Climbing FlightAware ADS-B
Wed 11:38:12 PM 44.4200 -86.2200 33° Northeast 457 526 30,400 424 Climbing FlightAware ADS-B
Wed 11:38:52 PM 44.4900 -86.1550 34° Northeast 457 526 30,700 565 Climbing FlightAware ADS-B
Wed 11:39:37 PM 44.5690 -86.0830 33° Northeast 456 525 31,200 565 Climbing FlightAware ADS-B
Wed 11:40:17 PM 44.6380 -86.0190 33° Northeast 456 525 31,500 450 Climbing FlightAware ADS-B
Wed 11:40:57 PM 44.7060 -85.9570 33° Northeast 456 525 31,800 565 Climbing FlightAware ADS-B
Wed 11:41:42 PM 44.7890 -85.8790 34° Northeast 453 521 32,300 494 Climbing FlightAware ADS-B
Wed 11:42:22 PM 44.8570 -85.8160 33° Northeast 453 521 32,500 282 Climbing FlightAware ADS-B
Wed 11:43:07 PM 44.9390 -85.7390 34° Northeast 455 524 32,700 375 Climbing FlightAware ADS-B
Wed 11:43:42 PM 44.9990 -85.6830 33° Northeast 453 521 33,000 212 Climbing FlightAware ADS-B
Wed 11:44:32 PM 45.0870 -85.6000 34° Northeast 459 528 33,000  Level FlightAware ADS-B
Wed 11:45:12 PM 45.1550 -85.5360 34° Northeast 461 531 33,000  Level FlightAware ADS-B
Wed 11:45:52 PM 45.2280 -85.4670 34° Northeast 461 531 33,000  Level FlightAware ADS-B
Wed 11:46:32 PM 45.2990 -85.3990 34° Northeast 460 529 33,000  Level FlightAware ADS-B
Wed 11:47:17 PM 45.3780 -85.3240 34° Northeast 461 531 33,000  Level FlightAware ADS-B
Wed 11:47:57 PM 45.4490 -85.2560 34° Northeast 463 533 33,000  Level FlightAware ADS-B
Wed 11:48:42 PM 45.5320 -85.1770 34° Northeast 465 535 33,000  Level FlightAware ADS-B
Wed 11:49:22 PM 45.6030 -85.1080 34° Northeast 465 535 33,000  Level FlightAware ADS-B
Wed 11:50:02 PM 45.6730 -85.0400 34° Northeast 465 535 33,000  Level FlightAware ADS-B
Wed 11:50:47 PM 45.7530 -84.9640 34° Northeast 465 535 33,000  Level FlightAware ADS-B
Wed 11:51:27 PM 45.8230 -84.8950 34° Northeast 466 536 33,000  Level FlightAware ADS-B
Wed 11:52:12 PM 45.9060 -84.8150 34° Northeast 467 537 33,000  Level FlightAware ADS-B
Wed 11:52:52 PM 45.9770 -84.7450 34° Northeast 466 536 33,000  Level FlightAware ADS-B
Wed 11:53:37 PM 46.0550 -84.6690 34° Northeast 465 535 33,000  Level FlightAware ADS-B
Wed 11:54:17 PM 46.1270 -84.5980 34° Northeast 465 535 33,000  Level FlightAware ADS-B
Wed 11:55:02 PM 46.2070 -84.5180 35° Northeast 467 537 33,000  Level FlightAware ADS-B
Wed 11:55:42 PM 46.2790 -84.4470 34° Northeast 469 540 33,000  Level FlightAware ADS-B
Wed 11:56:22 PM 46.3510 -84.3760 34° Northeast 471 542 33,000  Level FlightAware ADS-B
Wed 11:57:07 PM 46.4250 -84.2890 39° Northeast 476 548 33,000  Level FlightAware ADS-B
Wed 11:57:47 PM 46.4860 -84.1950 47° Northeast 476 548 33,000  Level FlightAware ADS-B
Wed 11:58:27 PM 46.5460 -84.1020 47° Northeast 475 547 33,000  Level FlightAware ADS-B
Wed 11:59:12 PM 46.6120 -83.9990 47° Northeast 475 547 33,000  Level FlightAware ADS-B
Wed 11:59:52 PM 46.6730 -83.9030 47° Northeast 477 549 33,000  Level FlightAware ADS-B
Thu 12:00:32 AM 46.7320 -83.8090 47° Northeast 477 549 33,000  Level FlightAware ADS-B
Thu 12:01:17 AM 46.7990 -83.7000 48° Northeast 478 550 33,000  Level FlightAware ADS-B
Thu 12:01:57 AM 46.8590 -83.6040 48° Northeast 480 552 33,000  Level FlightAware ADS-B
Thu 12:02:42 AM 46.9250 -83.4990 47° Northeast 482 555 33,000  Level FlightAware ADS-B
Thu 12:03:22 AM 46.9850 -83.4010 48° Northeast 481 554 33,000  Level FlightAware ADS-B
Thu 12:04:07 AM 47.0530 -83.2910 48° Northeast 480 552 33,000  Level FlightAware ADS-B
Thu 12:04:47 AM 47.1120 -83.1930 48° Northeast 480 552 33,000  Level FlightAware ADS-B
Thu 12:05:27 AM 47.1710 -83.0970 48° Northeast 480 552 33,000  Level FlightAware ADS-B
Thu 12:06:12 AM 47.2370 -82.9900 48° Northeast 482 555 33,000  Level FlightAware ADS-B
Thu 12:06:52 AM 47.2960 -82.8920 48° Northeast 483 556 33,000  Level FlightAware ADS-B
Thu 12:07:37 AM 47.3640 -82.7790 48° Northeast 483 556 33,000  Level FlightAware ADS-B
Thu 12:08:17 AM 47.4230 -82.6800 49° Northeast 484 557 33,000  Level FlightAware ADS-B
Thu 12:08:57 AM 47.4830 -82.5810 48° Northeast 486 559 33,000  Level FlightAware ADS-B
Thu 12:09:42 AM 47.5480 -82.4710 49° Northeast 491 565 33,000  Level FlightAware ADS-B
Thu 12:10:22 AM 47.6050 -82.3760 48° Northeast 493 567 33,000  Level FlightAware ADS-B
Thu 12:11:07 AM 47.6750 -82.2580 49° Northeast 495 570 33,000  Level FlightAware ADS-B
Thu 12:11:47 AM 47.7340 -82.1580 49° Northeast 496 571 33,000  Level FlightAware ADS-B
Thu 12:12:22 AM 47.7820 -82.0780 48° Northeast 496 571 33,000  Level FlightAware ADS-B
Thu 12:13:12 AM 47.8470 -81.9700 48° Northeast 496 571 33,000  Level FlightAware ADS-B
Thu 12:13:52 AM 47.8990 -81.8840 48° Northeast 496 571 33,000  Level FlightAware ADS-B
Thu 12:14:32 AM 47.9510 -81.7970 48° Northeast 496 571 33,000  Level FlightAware ADS-B
Thu 12:15:12 AM 48.0040 -81.7110 47° Northeast 496 571 33,000  Level FlightAware ADS-B
Thu 12:15:52 AM 48.0560 -81.6240 48° Northeast 496 571 33,000  Level FlightAware ADS-B
Thu 12:16:42 AM 48.1210 -81.5160 48° Northeast 496 571 33,000  Level FlightAware ADS-B
Thu 12:17:22 AM 48.1730 -81.4290 48° Northeast 496 571 33,000  Level FlightAware ADS-B
Thu 12:18:02 AM 48.2260 -81.3420 48° Northeast 496 571 33,000  Level FlightAware ADS-B
Thu 12:18:42 AM 48.2780 -81.2550 48° Northeast 496 571 33,000  Level FlightAware ADS-B
Thu 12:19:22 AM 48.3300 -81.1670 48° Northeast 496 571 33,000  Level FlightAware ADS-B
Thu 12:20:12 AM 48.3950 -81.0580 48° Northeast 496 571 33,000  Level FlightAware ADS-B
Thu 12:20:52 AM 48.4470 -80.9710 48° Northeast 496 571 33,000  Level FlightAware ADS-B
Thu 12:21:22 AM 48.4870 -80.9050 48° Northeast 496 571 33,000  Level FlightAware ADS-B
Thu 12:21:52 AM 48.6333 -80.5667 48° Northeast 510 587 33,000  Level Montreal Center
Thu 12:22:52 AM 48.7333 -80.4000 48° Northeast 500 575 33,000  Level Montreal Center
Thu 12:23:52 AM 48.8167 -80.2500 50° Northeast 500 575 33,000  Level Montreal Center
Thu 12:24:52 AM 48.9167 -80.0667 50° Northeast 500 575 33,000  Level Montreal Center
Thu 12:25:52 AM 49.0000 -79.9167 50° Northeast 510 587 33,000  Level Montreal Center
Thu 12:26:52 AM 49.0833 -79.7333 55° Northeast 500 575 33,000  Level Montreal Center
Thu 12:27:52 AM 49.1833 -79.5667 47° Northeast 510 587 33,000  Level Montreal Center
Thu 12:28:52 AM 49.2667 -79.4000 52° Northeast 510 587 33,000  Level Montreal Center
Thu 12:29:52 AM 49.3500 -79.2167 55° Northeast 510 587 33,000  Level Montreal Center
Thu 12:30:52 AM 49.4500 -79.0667 44° Northeast 510 587 33,000  Level Montreal Center
Thu 12:31:52 AM 49.5333 -78.9000 52° Northeast 500 575 33,000  Level Montreal Center
Thu 12:32:52 AM 49.6167 -78.7167 55° Northeast 510 587 33,000  Level Montreal Center
Thu 12:33:52 AM 49.7167 -78.5333 50° Northeast 510 587 33,000  Level Montreal Center
Thu 12:34:52 AM 49.8167 -78.3667 47° Northeast 510 587 33,000  Level Montreal Center
Thu 12:35:52 AM 49.9000 -78.2167 49° Northeast 510 587 33,000  Level Montreal Center
Thu 12:36:52 AM 49.9833 -78.0000 59° Northeast 510 587 33,000  Level Montreal Center
Thu 12:37:52 AM 50.0833 -77.8500 44° Northeast 520 598 33,000  Level Montreal Center
Thu 12:38:52 AM 50.1667 -77.6667 55° Northeast 510 587 33,000  Level Montreal Center
Thu 12:39:52 AM 50.2500 -77.4833 55° Northeast 510 587 33,000  Level Montreal Center
Thu 12:40:52 AM 50.3500 -77.3333 44° Northeast 520 598 33,000  Level Montreal Center
Thu 12:41:52 AM 50.4333 -77.1500 54° Northeast 520 598 33,000  Level Montreal Center
Thu 12:42:52 AM 50.5333 -76.9667 49° Northeast 520 598 33,000  Level Montreal Center
Thu 12:43:52 AM 50.6333 -76.7833 49° Northeast 510 587 33,000  Level Montreal Center
Thu 12:44:52 AM 50.7167 -76.6000 54° Northeast 520 598 33,000  Level Montreal Center
Thu 12:45:52 AM 50.8000 -76.4500 49° Northeast 520 598 33,000  Level Montreal Center
Thu 12:46:52 AM 50.8833 -76.2667 54° Northeast 520 598 33,000  Level Montreal Center
Thu 12:47:52 AM 50.9833 -76.0667 51° Northeast 520 598 33,000  Level Montreal Center
Thu 12:48:52 AM 51.0667 -75.8833 54° Northeast 520 598 33,000  Level Montreal Center
Thu 12:49:52 AM 51.1500 -75.7000 54° Northeast 520 598 33,000  Level Montreal Center
Thu 12:50:52 AM 51.2500 -75.5000 51° Northeast 520 598 33,000  Level Montreal Center
Thu 12:51:52 AM 51.3333 -75.3167 54° Northeast 520 598 33,000  Level Montreal Center
Thu 12:52:52 AM 51.4333 -75.1333 49° Northeast 530 610 33,000  Level Montreal Center
Thu 12:53:52 AM 51.5167 -74.9333 56° Northeast 530 610 33,000  Level Montreal Center
Thu 12:54:52 AM 51.6000 -74.7667 51° Northeast 530 610 33,000  Level Montreal Center
Thu 12:55:52 AM 51.7000 -74.5500 53° Northeast 530 610 33,000  Level Montreal Center
Thu 12:56:52 AM 51.7833 -74.3833 51° Northeast 530 610 33,000  Level Montreal Center
Thu 12:57:52 AM 51.8833 -74.1667 53° Northeast 530 610 33,000  Level Montreal Center
Thu 12:58:52 AM 51.9667 -74.0000 51° Northeast 530 610 33,000  Level Montreal Center
Thu 12:59:52 AM 52.0500 -73.7667 60° Northeast 530 610 33,000  Level Montreal Center
Thu 01:00:52 AM 52.1333 -73.6000 51° Northeast 530 610 33,000  Level Montreal Center
Thu 01:01:52 AM 52.2167 -73.4167 53° Northeast 540 621 33,000  Level Montreal Center
Thu 01:02:52 AM 52.3167 -73.1833 55° Northeast 530 610 33,000  Level Montreal Center
Thu 01:03:52 AM 52.4000 -72.9833 56° Northeast 540 621 33,000  Level Montreal Center
Thu 01:04:52 AM 52.4833 -72.7833 56° Northeast 540 621 33,000  Level Montreal Center
Thu 01:05:52 AM 52.5667 -72.5833 56° Northeast 540 621 33,000  Level Montreal Center
Thu 01:06:52 AM 52.6667 -72.3833 50° Northeast 540 621 33,000  Level Montreal Center
Thu 01:07:52 AM 52.7333 -72.1833 61° Northeast 540 621 33,000  Level Montreal Center
Thu 01:08:52 AM 52.8333 -71.9833 50° Northeast 540 621 33,000  Level Montreal Center
Thu 01:09:52 AM 52.9167 -71.7667 57° Northeast 540 621 33,000  Level Montreal Center
Thu 01:10:52 AM 53.0000 -71.5667 55° Northeast 540 621 33,000  Level Montreal Center
Thu 01:11:52 AM 53.0833 -71.3667 55° Northeast 540 621 33,000  Level Montreal Center
Thu 01:12:52 AM 53.1667 -71.1500 57° Northeast 540 621 33,000  Level Montreal Center
Thu 01:13:52 AM 53.2500 -70.9167 59° Northeast 540 621 33,000  Level Montreal Center
Thu 01:14:52 AM 53.3333 -70.7167 55° Northeast 550 633 33,000  Level Montreal Center
Thu 01:15:52 AM 53.4167 -70.5000 57° Northeast 550 633 33,000  Level Montreal Center
Thu 01:16:52 AM 53.5000 -70.3000 55° Northeast 550 633 33,000  Level Montreal Center
Thu 01:17:54 AM 53.6000 -70.1167 47° Northeast 550 633 33,000  Level Gander Center
Thu 01:18:54 AM 53.6833 -69.9000 57° Northeast 550 633 33,000  Level Gander Center
Thu 01:19:54 AM 53.7500 -69.7000 61° Northeast 550 633 33,000  Level Gander Center
Thu 01:20:54 AM 53.8333 -69.4500 60° Northeast 550 633 33,000  Level Gander Center
Thu 01:21:54 AM 53.9167 -69.2333 57° Northeast 550 633 33,000  Level Gander Center
Thu 01:22:54 AM 54.0000 -69.0000 59° Northeast 560 644 33,000  Level Gander Center
Thu 01:23:54 AM 54.0833 -68.7833 57° Northeast 550 633 33,000  Level Gander Center
Thu 01:24:54 AM 54.1500 -68.5333 65° Northeast 560 644 33,000  Level Gander Center
Thu 01:25:54 AM 54.2000 -68.2833 71° East 560 644 33,000  Level Gander Center
Thu 01:26:54 AM 54.2667 -68.0500 64° Northeast 560 644 33,000  Level Gander Center
Thu 01:27:54 AM 54.3333 -67.8000 65° Northeast 560 644 33,000  Level Gander Center
Thu 01:28:54 AM 54.3833 -67.5667 70° East 560 644 33,000  Level Gander Center
Thu 01:29:54 AM 54.4500 -67.3167 65° Northeast 560 644 33,000  Level Gander Center
Thu 01:30:54 AM 54.5167 -67.0667 65° Northeast 560 644 33,000  Level Gander Center
Thu 01:31:54 AM 54.5833 -66.8167 65° Northeast 570 656 33,000  Level Gander Center
Thu 01:32:54 AM 54.6333 -66.5667 71° East 570 656 33,000  Level Gander Center
Thu 01:33:54 AM 54.7000 -66.3167 65° Northeast 570 656 33,000  Level Gander Center
Thu 01:34:54 AM 54.7500 -66.0667 71° East 570 656 33,000  Level Gander Center
Thu 01:35:54 AM 54.8167 -65.8000 66° East 570 656 33,000  Level Gander Center
Thu 01:36:54 AM 54.8833 -65.5500 65° Northeast 570 656 33,000  Level Gander Center
Thu 01:37:54 AM 54.9333 -65.3000 71° East 570 656 33,000  Level Gander Center
Thu 01:38:54 AM 55.0000 -65.0333 66° East 570 656 33,000  Level Gander Center
Thu 01:39:54 AM 55.0500 -64.7500 73° East 570 656 33,000  Level Gander Center
Thu 01:40:54 AM 55.1000 -64.5167 69° East 570 656 33,000  Level Gander Center
Thu 01:41:54 AM 55.1667 -64.2667 65° Northeast 570 656 33,000  Level Gander Center
Thu 01:42:54 AM 55.2167 -63.9833 73° East 570 656 33,000  Level Gander Center
Thu 01:43:54 AM 55.2833 -63.7500 63° Northeast 570 656 33,000  Level Gander Center
Thu 01:44:54 AM 55.3333 -63.4500 74° East 570 656 33,000  Level Gander Center
Thu 01:45:54 AM 55.3833 -63.2000 71° East 580 667 33,000  Level Gander Center
Thu 01:46:54 AM 55.4333 -62.9333 72° East 570 656 33,000  Level Gander Center
Thu 01:47:54 AM 55.5000 -62.6667 66° East 580 667 33,000  Level Gander Center
Thu 01:48:54 AM 55.5500 -62.4000 72° East 570 656 33,000  Level Gander Center
Thu 01:49:35 AM 55.5833 -62.2333 70° East 570 656 33,000  Level Gander Center
Thu 01:50:35 AM 55.6333 -61.9667 72° East 570 656 33,000  Level Gander Center
Thu 01:50:54 AM 55.6500 -61.8667 74° East 570 656 33,000  Level Gander Center
Thu 01:51:54 AM 55.7000 -61.6000 71° East 570 656 33,000  Level Gander Center
Thu 01:52:54 AM 55.7500 -61.3333 71° East 570 656 33,000  Level Gander Center
Thu 01:53:54 AM 55.8000 -61.0667 71° East 570 656 33,000 59 Level Gander Center
Thu 01:54:35 AM 55.8333 -60.9000 70° East 570 656 33,100 400 Climbing Gander Center
Thu 01:54:54 AM 55.8500 -60.8000 73° East 570 656 33,400 911 Climbing Gander Center
Thu 01:55:54 AM 55.9000 -60.5333 71° East 570 656 34,300 650 Climbing Gander Center
Thu 01:56:54 AM 55.9500 -60.2667 71° East 560 644 34,700 416 Climbing Gander Center
Thu 01:57:35 AM 55.9833 -60.1167 68° East 560 644 35,000 300 Climbing Gander Center
Thu 01:57:54 AM 56.0000 -60.0333 70° East 560 644 35,000  Level Gander Center
Thu 01:58:54 AM 56.0500 -59.7500 72° East 560 644 35,000  Level Gander Center
Thu 01:59:35 AM 56.0667 -59.5833 80° East 560 644 35,000  Level Gander Center
Thu 01:59:54 AM 56.0833 -59.4833 73° East 560 644 35,000  Level Gander Center
Thu 02:00:54 AM 56.1333 -59.2167 71° East 560 644 35,000  Level Gander Center
Thu 02:01:35 AM 56.1667 -59.0333 72° East 560 644 35,000  Level Gander Center
Thu 02:02:35 AM 56.2000 -58.7667 77° East 560 644 35,000  Level Gander Center
Thu 02:02:54 AM 56.2333 -58.6667 59° Northeast 560 644 35,000  Level Gander Center
Thu 02:03:35 AM 56.2500 -58.4833 81° East 570 656 35,000  Level Gander Center
Thu 02:03:54 AM 56.2500 -58.4000 90° East 560 644 35,000  Level Gander Center
Thu 02:04:54 AM 56.3167 -58.1167 67° East 570 656 35,000  Level Gander Center
Thu 02:05:54 AM 56.3333 -57.8500 83° East 560 644 35,000  Level Gander Center
Thu 02:06:00 AM 56.3167 -58.0667 78° East 557 641 35,000  Level ETMS Enhanced Traffic Management System
Thu 02:06:54 AM 56.3667 -57.5667 78° East 570 656 35,000  Level Gander Center
Thu 02:07:54 AM 56.4000 -57.3000 77° East 560 644 35,000  Level Gander Center
Thu 02:08:54 AM 56.4333 -57.0167 78° East 560 644 35,000  Level Gander Center
Thu 02:09:54 AM 56.4667 -56.7500 77° East 560 644 35,000  Level Gander Center
Thu 02:10:35 AM 56.4833 -56.5667 81° East 560 644 35,000  Level Gander Center
Thu 02:11:00 AM 56.3167 -58.0667 78° East 557 641 35,000  Level ETMS Enhanced Traffic Management System
Thu 02:11:54 AM 56.5167 -56.2000 78° East 560 644 35,000  Level Gander Center
Thu 02:12:35 AM 56.5500 -56.0167 72° East 560 644 35,000  Level Gander Center
Thu 02:12:54 AM 56.5500 -55.8833 90° East 570 656 35,000  Level Gander Center
Thu 02:13:35 AM 56.5667 -55.7333 79° East 580 667 35,000  Level Gander Center
Thu 02:13:54 AM 56.5833 -55.6167 75° East 570 656 35,000  Level Gander Center
Thu 02:14:54 AM 56.6000 -55.3667 83° East 570 656 35,000  Level Gander Center
Thu 02:15:54 AM 56.6167 -55.1167 83° East 570 656 35,000  Level Gander Center
Thu 02:16:54 AM 56.6500 -54.8333 78° East 560 644 35,000  Level Gander Center
Thu 02:18:35 AM 56.7000 -54.3167 80° East 580 667 35,000  Level Gander Center
Thu 02:18:54 AM 56.7000 -54.2500 90° East 580 667 35,000  Level Gander Center
Thu 02:19:54 AM 56.7333 -53.9667 78° East 570 656 35,000  Level Gander Center
Thu 02:20:54 AM 56.7500 -53.7000 83° East 550 633 35,000  Level Gander Center
Thu 02:21:54 AM 56.7833 -53.4167 78° East 580 667 35,000  Level Gander Center
Thu 02:22:54 AM 56.8167 -53.1667 76° East 570 656 35,000  Level Gander Center
Thu 02:23:54 AM 56.8167 -52.8167 90° East 580 667 35,000  Level Gander Center
Thu 02:24:54 AM 56.8167 -52.5500 90° East 580 667 35,000  Level Gander Center
Thu 02:26:00 AM 56.8382 -52.2852 81° East  Level FlightAware Approximate
Thu 02:33:00 AM 56.9621 -50.5934 82° East  Level FlightAware Approximate
Thu 02:34:00 AM 56.9780 -50.3508 83° East  Level FlightAware Approximate
Thu 02:35:00 AM 56.9933 -50.1081 83° East  Level FlightAware Approximate
Thu 02:35:38 AM 57.0000 -50.0000 86° East 544 626 35,000  Level ETMS Enhanced Traffic Management System
Thu 02:36:00 AM 57.0053 -49.8642 86° East  Level FlightAware Approximate
Thu 02:37:00 AM 57.0146 -49.6202 86° East  Level FlightAware Approximate
Thu 02:38:00 AM 57.0234 -49.3761 86° East  Level FlightAware Approximate
Thu 02:39:00 AM 57.0317 -49.1319 86° East  Level FlightAware Approximate
Thu 02:40:00 AM 57.0395 -48.8876 87° East  Level FlightAware Approximate
Thu 02:41:00 AM 57.0624 -48.0590 87° East 544 626 35,000  Level FlightAware Transoceanic
Thu 02:42:00 AM 57.0689 -47.7812 88° East 544 626 35,000  Level FlightAware Transoceanic
Thu 02:43:00 AM 57.0747 -47.5034 88° East 544 626 35,000  Level FlightAware Transoceanic
Thu 02:44:00 AM 57.0800 -47.2254 88° East 544 626 35,000  Level FlightAware Transoceanic
Thu 02:45:00 AM 57.0846 -46.9474 88° East 544 626 35,000  Level FlightAware Transoceanic
Thu 02:46:00 AM 57.0886 -46.6693 89° East 544 626 35,000  Level FlightAware Transoceanic
Thu 02:47:00 AM 57.0920 -46.3912 89° East 544 626 35,000  Level FlightAware Transoceanic
Thu 02:48:00 AM 57.0948 -46.1130 89° East 544 626 35,000  Level FlightAware Transoceanic
Thu 02:49:00 AM 57.0969 -45.8348 89° East 544 626 35,000  Level FlightAware Transoceanic
Thu 02:50:00 AM 57.0985 -45.5565 90° East 544 626 35,000  Level FlightAware Transoceanic
Thu 02:51:00 AM 57.0994 -45.2783 90° East 544 626 35,000  Level FlightAware Transoceanic
Thu 02:52:00 AM 57.0997 -45.0000 90° East 544 626 35,000  Level FlightAware Transoceanic
Thu 02:53:00 AM 57.0994 -44.7217 90° East 544 626 35,000  Level FlightAware Transoceanic
Thu 02:54:00 AM 57.0985 -44.4435 90° East 544 626 35,000  Level FlightAware Transoceanic
Thu 02:55:00 AM 57.0969 -44.1652 91° East 544 626 35,000  Level FlightAware Transoceanic
Thu 02:56:00 AM 57.0948 -43.8870 91° East 544 626 35,000  Level FlightAware Transoceanic
Thu 02:57:00 AM 57.0920 -43.6088 91° East 544 626 35,000  Level FlightAware Transoceanic
Thu 02:58:00 AM 57.0886 -43.3307 91° East 544 626 35,000  Level FlightAware Transoceanic
Thu 02:59:00 AM 57.0846 -43.0526 92° East 544 626 35,000  Level FlightAware Transoceanic
Thu 03:00:00 AM 57.0800 -42.7746 92° East 544 626 35,000  Level FlightAware Transoceanic
Thu 03:01:00 AM 57.0747 -42.4966 92° East 544 626 35,000  Level FlightAware Transoceanic
Thu 03:02:00 AM 57.0689 -42.2188 92° East 544 626 35,000  Level FlightAware Transoceanic
Thu 03:03:00 AM 57.0624 -41.9410 93° East 544 626 35,000  Level FlightAware Transoceanic
Thu 03:04:00 AM 57.0554 -41.6633 93° East 544 626 35,000  Level FlightAware Transoceanic
Thu 03:05:00 AM 57.0477 -41.3858 93° East 544 626 35,000  Level FlightAware Transoceanic
Thu 03:06:00 AM 57.0393 -41.1084 93° East 544 626 35,000  Level FlightAware Transoceanic
Thu 03:07:00 AM 57.0304 -40.8311 93° East 544 626 35,000  Level FlightAware Transoceanic
Thu 03:08:00 AM 57.0209 -40.5539 94° East 544 626 35,000  Level FlightAware Transoceanic
Thu 03:09:00 AM 57.0108 -40.2769 94° East 544 626 35,000  Level FlightAware Transoceanic
Thu 03:10:00 AM 57.0013 -40.0330 94° East  Level FlightAware Approximate
Thu 03:11:00 AM 56.9914 -39.7892 94° East  Level FlightAware Approximate
Thu 03:12:00 AM 56.9896 -39.8226 96° East  Level FlightAware Approximate
Thu 03:12:00 AM 57.0000 -40.0000 96° East 492 566 35,000  Level ETMS Enhanced Traffic Management System
Thu 03:13:00 AM 56.9749 -39.5797 96° East  Level FlightAware Approximate
Thu 03:14:00 AM 56.9598 -39.3370 96° East  Level FlightAware Approximate
Thu 03:15:00 AM 56.9442 -39.0945 97° East  Level FlightAware Approximate
Thu 03:16:00 AM 56.9281 -38.8522 97° East  Level FlightAware Approximate
Thu 03:17:00 AM 56.9116 -38.6102 97° East  Level FlightAware Approximate
Thu 03:18:00 AM 56.8946 -38.3683 97° East  Level FlightAware Approximate
Thu 03:19:00 AM 56.8685 -38.0104 98° East 492 566 35,000  Level FlightAware Transoceanic
Thu 03:20:00 AM 56.8499 -37.7627 98° East 492 566 35,000  Level FlightAware Transoceanic
Thu 03:21:00 AM 56.8307 -37.5153 98° East 492 566 35,000  Level FlightAware Transoceanic
Thu 03:22:00 AM 56.8111 -37.2681 98° East 492 566 35,000  Level FlightAware Transoceanic
Thu 03:23:00 AM 56.7910 -37.0212 99° East 492 566 35,000  Level FlightAware Transoceanic
Thu 03:24:00 AM 56.7704 -36.7746 99° East 492 566 35,000  Level FlightAware Transoceanic
Thu 03:25:00 AM 56.7493 -36.5282 99° East 492 566 35,000  Level FlightAware Transoceanic
Thu 03:26:00 AM 56.7277 -36.2821 99° East 492 566 35,000  Level FlightAware Transoceanic
Thu 03:27:00 AM 56.7057 -36.0363 99° East 492 566 35,000  Level FlightAware Transoceanic
Thu 03:28:00 AM 56.6831 -35.7908 100° East 492 566 35,000  Level FlightAware Transoceanic
Thu 03:29:00 AM 56.6601 -35.5456 100° East 492 566 35,000  Level FlightAware Transoceanic
Thu 03:30:00 AM 56.6366 -35.3007 100° East 492 566 35,000  Level FlightAware Transoceanic
Thu 03:31:00 AM 56.6126 -35.0561 100° East 492 566 35,000  Level FlightAware Transoceanic
Thu 03:32:00 AM 56.5882 -34.8118 100° East 492 566 35,000  Level FlightAware Transoceanic
Thu 03:33:00 AM 56.5632 -34.5678 101° East 492 566 35,000  Level FlightAware Transoceanic
Thu 03:34:00 AM 56.5378 -34.3242 101° East 492 566 35,000  Level FlightAware Transoceanic
Thu 03:35:00 AM 56.5119 -34.0809 101° East 492 566 35,000  Level FlightAware Transoceanic
Thu 03:36:00 AM 56.4855 -33.8379 101° East 492 566 35,000  Level FlightAware Transoceanic
Thu 03:37:00 AM 56.4587 -33.5953 101° East 492 566 35,000  Level FlightAware Transoceanic
Thu 03:38:00 AM 56.4314 -33.3530 102° East 492 566 35,000  Level FlightAware Transoceanic
Thu 03:39:00 AM 56.4036 -33.1110 102° East 492 566 35,000  Level FlightAware Transoceanic
Thu 03:40:00 AM 56.3753 -32.8695 102° East 492 566 35,000  Level FlightAware Transoceanic
Thu 03:41:00 AM 56.3466 -32.6282 102° East 492 566 35,000  Level FlightAware Transoceanic
Thu 03:42:00 AM 56.3174 -32.3874 102° East 492 566 35,000  Level FlightAware Transoceanic
Thu 03:43:00 AM 56.2877 -32.1469 103° East 492 566 35,000  Level FlightAware Transoceanic
Thu 03:44:00 AM 56.2576 -31.9068 103° East 492 566 35,000  Level FlightAware Transoceanic
Thu 03:45:00 AM 56.2270 -31.6671 103° East 492 566 35,000  Level FlightAware Transoceanic
Thu 03:46:00 AM 56.1960 -31.4277 103° East 492 566 35,000  Level FlightAware Transoceanic
Thu 03:47:00 AM 56.1645 -31.1888 103° East 492 566 35,000  Level FlightAware Transoceanic
Thu 03:48:00 AM 56.1325 -30.9502 104° East 492 566 35,000  Level FlightAware Transoceanic
Thu 03:49:00 AM 56.1000 -30.7120 104° East 492 566 35,000  Level FlightAware Transoceanic
Thu 03:50:00 AM 56.0672 -30.4743 104° East 492 566 35,000  Level FlightAware Transoceanic
Thu 03:51:00 AM 56.0338 -30.2369 104° East 492 566 35,000  Level FlightAware Transoceanic
Thu 03:52:00 AM 56.0009 -30.0061 104° East  Level FlightAware Approximate
Thu 03:53:00 AM 55.9674 -29.7757 104° East  Level FlightAware Approximate
Thu 03:53:00 AM 56.0000 -30.0000 96° East 470 541 35,000  Level ETMS Enhanced Traffic Management System
Thu 03:54:00 AM 55.9867 -29.7757 96° East  Level FlightAware Approximate
Thu 03:55:00 AM 55.9722 -29.5392 96° East  Level FlightAware Approximate
Thu 03:56:00 AM 55.9572 -29.3027 96° East  Level FlightAware Approximate
Thu 03:57:00 AM 55.9418 -29.0665 97° East  Level FlightAware Approximate
Thu 03:58:00 AM 55.9260 -28.8305 97° East  Level FlightAware Approximate
Thu 03:59:00 AM 55.9097 -28.5946 97° East  Level FlightAware Approximate
Thu 04:00:00 AM 55.8793 -28.1469 97° East 470 541 35,000  Level FlightAware Transoceanic
Thu 04:01:00 AM 55.8623 -27.9162 98° East 470 541 35,000  Level FlightAware Transoceanic
Thu 04:02:00 AM 55.8448 -27.6856 98° East 470 541 35,000  Level FlightAware Transoceanic
Thu 04:03:00 AM 55.8270 -27.4552 98° East 470 541 35,000  Level FlightAware Transoceanic
Thu 04:04:00 AM 55.8086 -27.2251 98° East 470 541 35,000  Level FlightAware Transoceanic
Thu 04:05:00 AM 55.7899 -26.9951 98° East 470 541 35,000  Level FlightAware Transoceanic
Thu 04:06:00 AM 55.7707 -26.7654 99° East 470 541 35,000  Level FlightAware Transoceanic
Thu 04:07:00 AM 55.7511 -26.5359 99° East 470 541 35,000  Level FlightAware Transoceanic
Thu 04:08:00 AM 55.7310 -26.3067 99° East 470 541 35,000  Level FlightAware Transoceanic
Thu 04:09:00 AM 55.7106 -26.0777 99° East 470 541 35,000  Level FlightAware Transoceanic
Thu 04:10:00 AM 55.6897 -25.8489 99° East 470 541 35,000  Level FlightAware Transoceanic
Thu 04:11:00 AM 55.6684 -25.6204 99° East 470 541 35,000  Level FlightAware Transoceanic
Thu 04:12:00 AM 55.6466 -25.3921 100° East 470 541 35,000  Level FlightAware Transoceanic
Thu 04:13:00 AM 55.6245 -25.1641 100° East 470 541 35,000  Level FlightAware Transoceanic
Thu 04:14:00 AM 55.6019 -24.9363 100° East 470 541 35,000  Level FlightAware Transoceanic
Thu 04:15:00 AM 55.5789 -24.7089 100° East 470 541 35,000  Level FlightAware Transoceanic
Thu 04:16:00 AM 55.5555 -24.4816 100° East 470 541 35,000  Level FlightAware Transoceanic
Thu 04:17:00 AM 55.5316 -24.2547 101° East 470 541 35,000  Level FlightAware Transoceanic
Thu 04:18:00 AM 55.5073 -24.0280 101° East 470 541 35,000  Level FlightAware Transoceanic
Thu 04:19:00 AM 55.4827 -23.8016 101° East 470 541 35,000  Level FlightAware Transoceanic
Thu 04:20:00 AM 55.4576 -23.5755 101° East 470 541 35,000  Level FlightAware Transoceanic
Thu 04:21:00 AM 55.4320 -23.3497 101° East 470 541 35,000  Level FlightAware Transoceanic
Thu 04:22:00 AM 55.4061 -23.1242 102° East 470 541 35,000  Level FlightAware Transoceanic
Thu 04:23:00 AM 55.3798 -22.8990 102° East 470 541 35,000  Level FlightAware Transoceanic
Thu 04:24:00 AM 55.3530 -22.6740 102° East 470 541 35,000  Level FlightAware Transoceanic
Thu 04:25:00 AM 55.3258 -22.4494 102° East 470 541 35,000  Level FlightAware Transoceanic
Thu 04:26:00 AM 55.2982 -22.2251 102° East 470 541 35,000  Level FlightAware Transoceanic
Thu 04:27:00 AM 55.2702 -22.0012 102° East 470 541 35,000  Level FlightAware Transoceanic
Thu 04:28:00 AM 55.2418 -21.7775 103° East 470 541 35,000  Level FlightAware Transoceanic
Thu 04:29:00 AM 55.2130 -21.5541 103° East 470 541 35,000  Level FlightAware Transoceanic
Thu 04:30:00 AM 55.1838 -21.3311 103° East 470 541 35,000  Level FlightAware Transoceanic
Thu 04:31:00 AM 55.1542 -21.1084 103° East 470 541 35,000  Level FlightAware Transoceanic
Thu 04:32:00 AM 55.1241 -20.8860 103° East 470 541 35,000  Level FlightAware Transoceanic
Thu 04:33:00 AM 55.0937 -20.6640 104° East 470 541 35,000  Level FlightAware Transoceanic
Thu 04:34:00 AM 55.0629 -20.4423 104° East 470 541 35,000  Level FlightAware Transoceanic
Thu 04:35:00 AM 55.0316 -20.2210 104° East 470 541 35,000 46 Level FlightAware Transoceanic
Thu 04:36:00 AM 54.9994 -19.9957 104° East  Level FlightAware Approximate
Thu 04:37:00 AM 54.9994 -19.9911 97° East  Level FlightAware Approximate
Thu 04:38:00 AM 54.9824 -19.7609 97° East  Level FlightAware Approximate
Thu 04:39:00 AM 54.9650 -19.5309 97° East  Level FlightAware Approximate
Thu 04:40:00 AM 54.9472 -19.3011 98° East  Level FlightAware Approximate
Thu 04:41:00 AM 54.9290 -19.0714 98° East  Level FlightAware Approximate
Thu 04:42:00 AM 54.9103 -18.8420 98° East  Level FlightAware Approximate
Thu 04:43:00 AM 54.8912 -18.6129 98° East  Level FlightAware Approximate
Thu 04:44:00 AM 54.8716 -18.3839 98° East  Level FlightAware Approximate
Thu 04:45:00 AM 54.8517 -18.1551 99° East  Level FlightAware Approximate
Thu 04:46:00 AM 54.8312 -17.9266 99° East  Level FlightAware Approximate
Thu 04:47:00 AM 54.8104 -17.6983 99° East  Level FlightAware Approximate
Thu 04:48:00 AM 54.7892 -17.4703 99° East  Level FlightAware Approximate
Thu 04:49:00 AM 54.7675 -17.2425 99° East  Level FlightAware Approximate
Thu 04:50:00 AM 54.7453 -17.0149 99° East  Level FlightAware Approximate
Thu 04:51:00 AM 54.7228 -16.7876 100° East  Level FlightAware Approximate
Thu 04:52:00 AM 54.6998 -16.5606 100° East  Level FlightAware Approximate
Thu 04:53:00 AM 54.6765 -16.3337 100° East  Level FlightAware Approximate
Thu 04:54:00 AM 54.6530 -16.1071 100° East  Level FlightAware Approximate
Thu 04:55:00 AM 54.6291 -15.8808 100° East  Level FlightAware Approximate
Thu 04:56:00 AM 54.6047 -15.6547 100° East  Level FlightAware Approximate
Thu 04:57:00 AM 54.5799 -15.4289 101° East  Level FlightAware Approximate
Thu 04:58:00 AM 54.5547 -15.2034 101° East  Level FlightAware Approximate
Thu 04:59:00 AM 54.5291 -14.9781 101° East  Level FlightAware Approximate
Thu 05:00:00 AM 54.5030 -14.7531 101° East  Level FlightAware Approximate
Thu 05:01:00 AM 54.4765 -14.5285 101° East  Level FlightAware Approximate
Thu 05:02:00 AM 54.4497 -14.3041 102° East  Level FlightAware Approximate
Thu 05:03:00 AM 54.4224 -14.0800 102° East  Level FlightAware Approximate
Thu 05:04:00 AM 54.3946 -13.8562 102° East  Level FlightAware Approximate
Thu 05:04:37 AM 54.5900 -13.7050 102° East 486 559 36,400  Level FlightAware ADS-B
Thu 05:05:00 AM 54.3665 -13.6327 102° East  Level FlightAware Approximate
Thu 05:05:22 AM 54.5290 -13.5680 127° Southeast 483 556 36,700  Level FlightAware ADS-B
Thu 05:05:57 AM 54.4810 -13.4600 127° Southeast 483 556 36,900 212 Climbing FlightAware ADS-B
Thu 05:06:47 AM 54.4130 -13.3060 127° Southeast 487 560 37,000 63 Climbing FlightAware ADS-B
Thu 05:07:32 AM 54.3540 -13.1740 127° Southeast 482 555 37,000  Level FlightAware ADS-B
Thu 05:08:22 AM 54.2830 -13.0180 128° Southeast 485 558 37,000  Level FlightAware ADS-B
Thu 05:09:02 AM 54.2270 -12.8940 128° Southeast 485 558 37,000  Level FlightAware ADS-B
Thu 05:09:42 AM 54.1730 -12.7740 128° Southeast 486 559 37,000  Level FlightAware ADS-B
Thu 05:10:27 AM 54.1110 -12.6400 128° Southeast 486 559 37,000  Level FlightAware ADS-B
Thu 05:11:12 AM 54.0450 -12.4950 128° Southeast 491 565 37,000  Level FlightAware ADS-B
Thu 05:11:47 AM 53.9960 -12.3900 128° Southeast 492 566 37,000  Level FlightAware ADS-B
Thu 05:12:32 AM 53.9320 -12.2520 128° Southeast 492 566 37,000  Level FlightAware ADS-B
Thu 05:13:17 AM 53.8690 -12.1180 129° Southeast 491 565 37,000  Level FlightAware ADS-B
Thu 05:13:57 AM 53.8120 -11.9960 128° Southeast 491 565 37,000  Level FlightAware ADS-B
Thu 05:15:22 AM 53.6970 -11.7530 129° Southeast 494 568 37,000  Level FlightAware ADS-B
Thu 05:16:02 AM 53.6370 -11.6270 129° Southeast 491 565 37,000  Level FlightAware ADS-B
Thu 05:16:47 AM 53.5730 -11.4920 129° Southeast 491 565 37,000  Level FlightAware ADS-B
Thu 05:17:27 AM 53.5150 -11.3730 129° Southeast 491 565 37,000  Level FlightAware ADS-B
Thu 05:18:12 AM 53.4540 -11.2470 129° Southeast 493 567 37,000  Level FlightAware ADS-B
Thu 05:18:52 AM 53.3920 -11.1180 129° Southeast 494 568 37,000  Level FlightAware ADS-B
Thu 05:19:32 AM 53.3340 -10.9990 129° Southeast 493 567 37,000  Level FlightAware ADS-B
Thu 05:20:17 AM 53.2660 -10.8620 130° Southeast 491 565 37,000  Level FlightAware ADS-B
Thu 05:20:57 AM 53.2100 -10.7490 130° Southeast 490 564 37,000  Level FlightAware ADS-B
Thu 05:21:42 AM 53.1440 -10.6150 129° Southeast 487 560 37,000  Level FlightAware ADS-B
Thu 05:22:22 AM 53.0850 -10.4960 130° Southeast 487 560 37,000  Level FlightAware ADS-B
Thu 05:23:07 AM 53.0200 -10.3670 130° Southeast 488 562 37,000  Level FlightAware ADS-B
Thu 05:23:47 AM 52.9610 -10.2500 130° Southeast 489 563 37,000  Level FlightAware ADS-B
Thu 05:24:32 AM 52.8960 -10.1200 130° Southeast 489 563 37,000  Level FlightAware ADS-B
Thu 05:25:12 AM 52.8360 -10.0040 131° Southeast 488 562 37,000  Level FlightAware ADS-B
Thu 05:25:52 AM 52.7780 -9.8890 130° Southeast 486 559 37,000  Level FlightAware ADS-B
Thu 05:26:37 AM 52.7160 -9.7690 130° Southeast 485 558 37,000  Level FlightAware ADS-B
Thu 05:27:07 AM 52.6670 -9.6740 130° Southeast 489 563 37,000  Level FlightAware ADS-B
Thu 05:28:02 AM 52.5910 -9.5260 130° Southeast 483 556 37,000  Level FlightAware ADS-B
Thu 05:28:42 AM 52.5330 -9.4160 131° Southeast 482 555 37,000  Level FlightAware ADS-B
Thu 05:29:22 AM 52.4740 -9.3020 130° Southeast 483 556 37,000  Level FlightAware ADS-B
Thu 05:30:02 AM 52.4160 -9.1920 131° Southeast 481 554 37,000  Level FlightAware ADS-B
Thu 05:30:47 AM 52.3490 -9.0650 131° Southeast 489 563 37,000 -1,263 Level FlightAware ADS-B
Thu 05:31:18 AM 52.2945 -8.9623 131° Southeast 468 539 35,400  Descending FlightAware UK
Thu 05:31:32 AM 52.2820 -8.9400 131° Southeast 489 563 37,000 200 Climbing FlightAware ADS-B
Thu 05:31:48 AM 52.2498 -8.8782 131° Southeast 468 539 35,500 -2,647 Descending FlightAware UK
Thu 05:32:06 AM 52.2233 -8.8283 131° Southeast 470 541 35,500 3,750 Level FlightAware UK
Thu 05:32:12 AM 52.2240 -8.8300 131° Southeast 489 563 37,000  Climbing FlightAware ADS-B
Thu 05:32:30 AM 52.1876 -8.7617 131° Southeast 466 536 35,500 -2,500 Descending FlightAware UK
Thu 05:32:48 AM 52.1607 -8.7116 131° Southeast 470 541 35,500 4,091 Level FlightAware UK
Thu 05:32:52 AM 52.1630 -8.7170 131° Southeast 491 565 37,000  Climbing FlightAware ADS-B
Thu 05:33:12 AM 52.1251 -8.6449 131° Southeast 470 541 35,500 -2,368 Descending FlightAware UK
Thu 05:33:30 AM 52.0981 -8.5950 131° Southeast 470 541 35,500 4,500 Level FlightAware UK
Thu 05:33:32 AM 52.1040 -8.6060 131° Southeast 491 565 37,000  Climbing FlightAware ADS-B
Thu 05:33:48 AM 52.0711 -8.5451 131° Southeast 476 548 35,500 -2,647 Descending FlightAware UK
Thu 05:34:06 AM 52.0442 -8.4953 131° Southeast 472 543 35,500 3,103 Level FlightAware UK
Thu 05:34:17 AM 52.0360 -8.4810 131° Southeast 491 565 37,000  Climbing FlightAware ADS-B
Thu 05:34:36 AM 51.9992 -8.4124 131° Southeast 466 536 35,500 -2,432 Descending FlightAware UK
Thu 05:34:54 AM 51.9722 -8.3628 131° Southeast 468 539 35,500 3,462 Level FlightAware UK
Thu 05:35:02 AM 51.9740 -8.3680 131° Southeast 492 566 37,000  Climbing FlightAware ADS-B
Thu 05:35:18 AM 51.9361 -8.2967 131° Southeast 470 541 35,500 -2,647 Descending FlightAware UK
Thu 05:35:36 AM 51.9089 -8.2464 131° Southeast 468 539 35,500 3,750 Level FlightAware UK
Thu 05:35:42 AM 51.9060 -8.2420 131° Southeast 493 567 37,000  Climbing FlightAware ADS-B
Thu 05:36:00 AM 51.8727 -8.1803 131° Southeast 470 541 35,500 -2,500 Descending FlightAware UK
Thu 05:36:18 AM 51.8454 -8.1308 132° Southeast 472 543 35,500 3,333 Level FlightAware UK
Thu 05:36:27 AM 51.8390 -8.1200 132° Southeast 495 570 37,000  Climbing FlightAware ADS-B
Thu 05:36:48 AM 51.8000 -8.0482 132° Southeast 474 545 35,500  Descending FlightAware UK
Thu 05:36:57 AM 51.7930 -8.0380 132° Southeast 495 570 37,000  Climbing FlightAware ADS-B
Thu 05:37:12 AM 51.7636 -7.9821 132° Southeast 472 543 35,500 -2,727 Descending FlightAware UK
Thu 05:37:30 AM 51.7363 -7.9326 132° Southeast 472 543 35,500 2,571 Level FlightAware UK
Thu 05:37:47 AM 51.7180 -7.9000 132° Southeast 494 568 37,000  Climbing FlightAware ADS-B
Thu 05:38:06 AM 51.6816 -7.8340 132° Southeast 470 541 35,500 -2,432 Descending FlightAware UK
Thu 05:38:24 AM 51.6542 -7.7849 132° Southeast 472 543 35,500 3,462 Level FlightAware UK
Thu 05:38:32 AM 51.6470 -7.7740 132° Southeast 494 568 37,000  Climbing FlightAware ADS-B
Thu 05:38:48 AM 51.6176 -7.7197 132° Southeast 472 543 35,500 -2,647 Descending FlightAware UK
Thu 05:39:06 AM 51.5901 -7.6708 132° Southeast 472 543 35,500 3,750 Level FlightAware UK
Thu 05:39:12 AM 51.5870 -7.6660 132° Southeast 494 568 37,000  Climbing FlightAware ADS-B
Thu 05:39:30 AM 51.5535 -7.6058 132° Southeast 474 545 35,500 -2,500 Descending FlightAware UK
Thu 05:39:48 AM 51.5260 -7.5570 132° Southeast 472 543 35,500 3,333 Level FlightAware UK
Thu 05:39:57 AM 51.5180 -7.5440 132° Southeast 494 568 37,000  Climbing FlightAware ADS-B
Thu 05:40:12 AM 51.4893 -7.4922 132° Southeast 470 541 35,500 -2,727 Descending FlightAware UK
Thu 05:40:30 AM 51.4619 -7.4434 132° Southeast 470 541 35,500 3,600 Level FlightAware UK
Thu 05:40:37 AM 51.4570 -7.4340 132° Southeast 494 568 37,000  Climbing FlightAware ADS-B
Thu 05:40:54 AM 51.4254 -7.3785 132° Southeast 472 543 35,500 -2,571 Descending FlightAware UK
Thu 05:41:12 AM 51.3978 -7.3300 132° Southeast 474 545 35,500 3,913 Level FlightAware UK
Thu 05:41:17 AM 51.3980 -7.3310 132° Southeast 495 570 37,000  Climbing FlightAware ADS-B
Thu 05:41:36 AM 51.3612 -7.2652 132° Southeast 474 545 35,500  Descending FlightAware UK
Thu 05:41:52 AM 51.3490 -7.2440 132° Southeast 496 571 37,000  Climbing FlightAware ADS-B
Thu 05:41:54 AM 51.3337 -7.2166 132° Southeast 474 545 35,500 -4,500 Descending FlightAware UK
Thu 05:42:12 AM 51.3061 -7.1682 132° Southeast 472 543 35,500  Level FlightAware UK
Thu 05:42:30 AM 51.2784 -7.1198 132° Southeast 474 545 35,500 3,000 Level FlightAware UK
Thu 05:42:42 AM 51.2660 -7.0990 132° Southeast 493 567 37,000  Climbing FlightAware ADS-B
Thu 05:43:00 AM 51.2320 -7.0388 132° Southeast 476 548 35,500 -2,500 Descending FlightAware UK
Thu 05:43:18 AM 51.2042 -6.9907 133° Southeast 474 545 35,500 4,091 Level FlightAware UK
Thu 05:43:22 AM 51.2050 -6.9920 133° Southeast 491 565 37,000  Climbing FlightAware ADS-B
Thu 05:43:42 AM 51.1673 -6.9268 133° Southeast 472 543 35,500  Descending FlightAware UK
Thu 05:43:52 AM 51.1610 -6.9160 133° Southeast 489 563 37,000  Climbing FlightAware ADS-B
Thu 05:44:12 AM 51.1214 -6.8475 133° Southeast 472 543 35,500 -2,368 Descending FlightAware UK
Thu 05:44:30 AM 51.0939 -6.8000 133° Southeast 470 541 35,500 3,600 Level FlightAware UK
Thu 05:44:37 AM 51.0890 -6.7910 133° Southeast 489 563 37,000  Climbing FlightAware ADS-B
Thu 05:44:54 AM 51.0571 -6.7370 133° Southeast 472 543 35,500 -2,571 Descending FlightAware UK
Thu 05:45:12 AM 51.0295 -6.6898 133° Southeast 474 545 35,500 5,000 Level FlightAware UK
Thu 05:45:12 AM 51.0400 -6.7070 133° Southeast 489 563 37,000  Climbing FlightAware ADS-B
Thu 05:45:30 AM 51.0020 -6.6423 133° Southeast 474 545 35,500 -2,500 Descending FlightAware UK
Thu 05:45:48 AM 50.9746 -6.5949 133° Southeast 472 543 35,500 3,333 Level FlightAware UK
Thu 05:45:57 AM 50.9650 -6.5790 133° Southeast 488 562 37,000  Climbing FlightAware ADS-B
Thu 05:46:12 AM 50.9378 -6.5322 133° Southeast 470 541 35,500 -2,727 Descending FlightAware UK
Thu 05:46:30 AM 50.9102 -6.4852 133° Southeast 470 541 35,500 3,000 Level FlightAware UK
Thu 05:46:42 AM 50.8980 -6.4640 133° Southeast 487 560 37,000  Climbing FlightAware ADS-B
Thu 05:47:00 AM 50.8643 -6.4072 133° Southeast 470 541 35,500 -2,500 Descending FlightAware UK
Thu 05:47:18 AM 50.8368 -6.3604 133° Southeast 468 539 35,500 4,091 Level FlightAware UK
Thu 05:47:22 AM 50.8370 -6.3610 133° Southeast 487 560 37,000  Climbing FlightAware ADS-B
Thu 05:47:42 AM 50.8000 -6.2980 133° Southeast 472 543 35,500 -2,368 Descending FlightAware UK
Thu 05:48:00 AM 50.7725 -6.2511 133° Southeast 468 539 35,500 4,500 Level FlightAware UK
Thu 05:48:02 AM 50.7760 -6.2570 133° Southeast 487 560 37,000  Climbing FlightAware ADS-B
Thu 05:48:18 AM 50.7450 -6.2045 133° Southeast 468 539 35,500 -2,647 Descending FlightAware UK
Thu 05:48:36 AM 50.7173 -6.1581 133° Southeast 468 539 35,500 3,103 Level FlightAware UK
Thu 05:48:47 AM 50.7050 -6.1390 133° Southeast 488 562 37,000  Climbing FlightAware ADS-B
Thu 05:49:06 AM 50.6710 -6.0806 133° Southeast 466 536 35,500 -2,432 Descending FlightAware UK
Thu 05:49:24 AM 50.6432 -6.0341 133° Southeast 468 539 35,500 4,286 Level FlightAware UK
Thu 05:49:27 AM 50.6430 -6.0340 133° Southeast 490 564 37,000  Climbing FlightAware ADS-B
Thu 05:49:42 AM 50.6153 -5.9873 133° Southeast 468 539 35,500  Descending FlightAware UK
Thu 05:49:57 AM 50.5970 -5.9580 133° Southeast 493 567 37,000  Climbing FlightAware ADS-B
Thu 05:50:12 AM 50.5682 -5.9086 133° Southeast 472 543 35,500 -2,727 Descending FlightAware UK
Thu 05:50:30 AM 50.5401 -5.8616 133° Southeast 474 545 35,500 3,600 Level FlightAware UK
Thu 05:50:37 AM 50.5380 -5.8590 133° Southeast 493 567 37,000  Climbing FlightAware ADS-B
Thu 05:50:54 AM 50.5025 -5.7991 133° Southeast 472 543 35,500 -2,571 Descending FlightAware UK
Thu 05:51:12 AM 50.4742 -5.7524 134° Southeast 472 543 35,500 3,913 Level FlightAware UK
Thu 05:51:17 AM 50.4720 -5.7500 134° Southeast 494 568 37,000  Climbing FlightAware ADS-B
Thu 05:51:36 AM 50.4364 -5.6902 134° Southeast 472 543 35,500  Descending FlightAware UK
Thu 05:51:52 AM 50.4180 -5.6610 134° Southeast 493 567 37,000  Climbing FlightAware ADS-B
Thu 05:51:54 AM 50.4081 -5.6436 134° Southeast 472 543 35,500 -4,500 Descending FlightAware UK
Thu 05:52:12 AM 50.3798 -5.5971 134° Southeast 470 541 35,500  Level FlightAware UK
Thu 05:52:30 AM 50.3515 -5.5506 134° Southeast 472 543 35,500 3,000 Level FlightAware UK
Thu 05:52:42 AM 50.3400 -5.5310 134° Southeast 494 568 37,000  Climbing FlightAware ADS-B
Thu 05:53:00 AM 50.3044 -5.4731 134° Southeast 474 545 35,500 -2,500 Descending FlightAware UK
Thu 05:53:18 AM 50.2761 -5.4266 134° Southeast 472 543 35,500 4,091 Level FlightAware UK
Thu 05:53:22 AM 50.2730 -5.4220 134° Southeast 495 570 37,000  Climbing FlightAware ADS-B
Thu 05:53:48 AM 50.2286 -5.3493 134° Southeast 476 548 35,500  Descending FlightAware UK
Thu 05:54:02 AM 50.2100 -5.3200 134° Southeast 494 568 37,000  Climbing FlightAware ADS-B
Thu 05:54:18 AM 50.1812 -5.2723 134° Southeast 474 545 35,500 -2,647 Descending FlightAware UK
Thu 05:54:36 AM 50.1527 -5.2261 134° Southeast 472 543 35,500 3,103 Level FlightAware UK
Thu 05:54:47 AM 50.1400 -5.2070 134° Southeast 491 565 37,000  Climbing FlightAware ADS-B
Thu 05:55:12 AM 50.0923 -5.1412 134° Southeast 470 541 35,500  Descending FlightAware UK
Thu 05:55:27 AM 50.0760 -5.1190 134° Southeast 489 563 37,000  Climbing FlightAware ADS-B
Thu 05:55:42 AM 50.0408 -5.0722 134° Southeast 474 545 35,500 -2,727 Descending FlightAware UK
Thu 05:56:00 AM 50.0096 -5.0304 139° Southeast 476 548 35,500 3,600 Level FlightAware UK
Thu 05:56:07 AM 50.0050 -5.0240 139° Southeast 490 564 37,000  Climbing FlightAware ADS-B
Thu 05:56:24 AM 49.9686 -4.9752 139° Southeast 476 548 35,500 -2,571 Descending FlightAware UK
Thu 05:56:42 AM 49.9378 -4.9339 139° Southeast 474 545 35,500 3,214 Level FlightAware UK
Thu 05:56:52 AM 49.9300 -4.9230 139° Southeast 487 560 37,000  Climbing FlightAware ADS-B
Thu 05:57:12 AM 49.8867 -4.8656 139° Southeast 476 548 35,500 -2,368 Descending FlightAware UK
Thu 05:57:30 AM 49.8564 -4.8241 139° Southeast 478 550 35,500 4,500 Level FlightAware UK
Thu 05:57:32 AM 49.8600 -4.8260 139° Southeast 488 562 37,000  Climbing FlightAware ADS-B
Thu 05:57:48 AM 49.8319 -4.7738 139° Southeast 474 545 35,500 -2,647 Descending FlightAware UK
Thu 05:58:06 AM 49.8058 -4.7256 130° Southeast 472 543 35,500 3,103 Level FlightAware UK
Thu 05:58:17 AM 49.7950 -4.7050 130° Southeast 487 560 37,000  Climbing FlightAware ADS-B
Thu 05:58:42 AM 49.7539 -4.6297 130° Southeast 470 541 35,500  Descending FlightAware UK
Thu 05:58:57 AM 49.7370 -4.5990 130° Southeast 487 560 37,000  Climbing FlightAware ADS-B
Thu 05:59:12 AM 49.7105 -4.5498 130° Southeast 468 539 35,500 -2,308 Descending FlightAware UK
Thu 05:59:36 AM 49.6759 -4.4858 130° Southeast 466 536 35,500 3,000 Level FlightAware UK
Thu 05:59:42 AM 49.6740 -4.4800 130° Southeast 489 563 37,000 1,957 Climbing FlightAware ADS-B
Thu 06:00:22 AM 49.6240 -4.3630 123° Southeast 497 572 37,000 -1,475 Level FlightAware ADS-B
Thu 06:00:43 AM 49.5987 -4.2854 123° Southeast 468 539 35,500  Descending FlightAware UK
Thu 06:01:02 AM 49.5880 -4.2410 123° Southeast 504 580 37,000  Climbing FlightAware ADS-B
Thu 06:01:19 AM 49.5708 -4.1633 123° Southeast 470 541 35,500 -2,195 Descending FlightAware UK
Thu 06:01:43 AM 49.5578 -4.0787 103° East 468 539 35,500 3,214 Level FlightAware UK
Thu 06:01:47 AM 49.5570 -4.0700 103° East 511 588 37,000 2,045 Climbing FlightAware ADS-B
Thu 06:02:27 AM 49.5390 -3.9280 101° East 512 589 37,000 -1,125 Level FlightAware ADS-B
Thu 06:03:07 AM 49.5196 -3.7785 101° East 472 543 35,500  Descending FlightAware UK
Thu 06:03:12 AM 49.5180 -3.7710 101° East 513 590 37,000  Climbing FlightAware ADS-B
Thu 06:03:31 AM 49.5082 -3.6931 101° East 470 541 35,500 -2,432 Descending FlightAware UK
Thu 06:03:49 AM 49.4995 -3.6291 102° East 466 536 35,500 4,286 Level FlightAware UK
Thu 06:03:52 AM 49.5000 -3.6340 102° East 512 589 37,000  Climbing FlightAware ADS-B
Thu 06:04:07 AM 49.4906 -3.5651 102° East 468 539 35,500 -2,727 Descending FlightAware UK
Thu 06:04:25 AM 49.4817 -3.5012 102° East 470 541 35,500 3,000 Level FlightAware UK
Thu 06:04:37 AM 49.4760 -3.4650 102° East 514 592 37,000  Climbing FlightAware ADS-B
Thu 06:05:01 AM 49.4634 -3.3731 102° East 468 539 35,500  Descending FlightAware UK
Thu 06:05:17 AM 49.4560 -3.3250 102° East 515 593 37,000  Climbing FlightAware ADS-B
Thu 06:05:43 AM 49.4422 -3.2225 102° East 466 536 35,500  Descending FlightAware UK
Thu 06:05:57 AM 49.4360 -3.1810 102° East 517 595 37,000  Climbing FlightAware ADS-B
Thu 06:06:13 AM 49.4275 -3.1156 102° East 468 539 35,500 -2,647 Descending FlightAware UK
Thu 06:06:31 AM 49.4184 -3.0504 102° East 470 541 35,500 3,103 Level FlightAware UK
Thu 06:06:42 AM 49.4140 -3.0220 102° East 519 597 37,000  Climbing FlightAware ADS-B
Thu 06:07:01 AM 49.4031 -2.9417 102° East 472 543 35,500 -2,432 Descending FlightAware UK
Thu 06:07:19 AM 49.3937 -2.8768 103° East 472 543 35,500 4,286 Level FlightAware UK
Thu 06:07:22 AM 49.3940 -2.8790 103° East 520 598 37,000  Climbing FlightAware ADS-B
Thu 06:07:37 AM 49.3842 -2.8120 103° East 470 541 35,500 -2,308 Descending FlightAware UK
Thu 06:08:01 AM 49.3716 -2.7257 103° East 468 539 35,500 3,000 Level FlightAware UK
Thu 06:08:07 AM 49.3700 -2.7130 103° East 522 601 37,000  Climbing FlightAware ADS-B
Thu 06:08:31 AM 49.3565 -2.6173 103° East 470 541 35,500  Descending FlightAware UK
Thu 06:08:47 AM 49.3500 -2.5670 103° East 524 603 37,000  Climbing FlightAware ADS-B
Thu 06:09:13 AM 49.3360 -2.4637 103° East 472 543 35,500  Descending FlightAware UK
Thu 06:09:27 AM 49.3320 -2.4320 103° East 526 605 37,000  Climbing FlightAware ADS-B
Thu 06:09:44 AM 49.3211 -2.3536 103° East 470 541 35,500 -2,647 Descending FlightAware UK
Thu 06:10:01 AM 49.3121 -2.2889 102° East 470 541 35,500 3,214 Level FlightAware UK
Thu 06:10:12 AM 49.3080 -2.2640 102° East 527 606 37,000  Climbing FlightAware ADS-B
Thu 06:10:32 AM 49.2963 -2.1796 102° East 470 541 35,500  Descending FlightAware UK
Thu 06:10:47 AM 49.2900 -2.1370 102° East 527 606 37,000  Climbing FlightAware ADS-B
Thu 06:11:26 AM 49.2671 -1.9817 102° East 468 539 35,500  Descending FlightAware UK
Thu 06:11:32 AM 49.2660 -1.9750 102° East 528 608 37,000  Climbing FlightAware ADS-B
Thu 06:12:02 AM 49.2474 -1.8504 102° East 472 543 35,500  Descending FlightAware UK
Thu 06:12:17 AM 49.2410 -1.8070 102° East 530 610 37,000  Climbing FlightAware ADS-B
Thu 06:12:50 AM 49.2216 -1.6758 102° East 476 548 35,500  Descending FlightAware UK
Thu 06:12:57 AM 49.2190 -1.6570 102° East 529 609 37,000  Climbing FlightAware ADS-B
Thu 06:13:14 AM 49.2089 -1.5891 102° East 474 545 35,500  Descending FlightAware UK
Thu 06:13:42 AM 49.1950 -1.4990 102° East 527 606 37,000  Climbing FlightAware ADS-B
Thu 06:14:02 AM 49.1822 -1.4136 102° East 472 543 35,500  Descending FlightAware UK
Thu 06:14:22 AM 49.1730 -1.3570 102° East 525 604 37,000 1,500 Climbing FlightAware ADS-B
Thu 06:15:02 AM 49.1520 -1.2200 103° East 523 602 37,000 -1,552 Level FlightAware ADS-B
Thu 06:15:20 AM 49.1384 -1.1323 103° East 470 541 35,500 -2,500 Descending FlightAware UK
Thu 06:15:38 AM 49.1286 -1.0678 103° East 470 541 35,500 3,333 Level FlightAware UK
Thu 06:15:47 AM 49.1250 -1.0450 103° East 522 601 37,000  Climbing FlightAware ADS-B
Thu 06:16:02 AM 49.1153 -0.9821 103° East 468 539 35,500  Descending FlightAware UK
Thu 06:16:27 AM 49.1030 -0.9080 103° East 521 600 37,000  Climbing FlightAware ADS-B
Thu 06:17:02 AM 49.0814 -0.7685 103° East 470 541 35,500  Descending FlightAware UK
Thu 06:17:12 AM 49.0780 -0.7490 103° East 521 600 37,000  Climbing FlightAware ADS-B
Thu 06:17:27 AM 49.0677 -0.6823 103° East 470 541 35,500 -2,308 Descending FlightAware UK
Thu 06:17:51 AM 49.0554 -0.5965 102° East 472 543 35,500 3,600 Level FlightAware UK
Thu 06:17:52 AM 49.0570 -0.6030 102° East 523 602 37,000  Climbing FlightAware ADS-B
Thu 06:18:09 AM 49.0499 -0.5301 102° East 468 539 35,500  Descending FlightAware UK
Thu 06:18:31 AM 49.0426 -0.4524 102° East 524 603 37,000  Climbing FlightAware ADS-B
Thu 06:18:51 AM 49.0356 -0.3764 102° East 468 539 35,500  Descending FlightAware UK
Thu 06:19:11 AM 49.0289 -0.3066 102° East 524 603 37,000  Climbing FlightAware ADS-B
Thu 06:19:27 AM 49.0231 -0.2454 102° East 466 536 35,500 -2,647 Descending FlightAware UK
Thu 06:19:45 AM 49.0168 -0.1792 98° East 468 539 35,500 3,000 Level FlightAware UK
Thu 06:19:57 AM 49.0140 -0.1460 98° East 526 605 37,000 5,000 Climbing FlightAware ADS-B
Thu 06:20:03 AM 49.0110 -0.1183 99° East 524 603 37,000  Level FlightAware ADS-B
Thu 06:20:36 AM 48.9989 0.0015 99° East 526 605 37,000 -1,667 Level FlightAware ADS-B
Thu 06:20:57 AM 48.9907 0.0839 99° East 470 541 35,500  Descending FlightAware UK
Thu 06:21:08 AM 48.9871 0.1175 99° East 526 605 37,000  Climbing FlightAware ADS-B
Thu 06:21:27 AM 48.9793 0.1940 99° East 466 536 35,500  Descending FlightAware UK
Thu 06:21:42 AM 48.9742 0.2420 99° East 526 605 37,000  Climbing FlightAware ADS-B
Thu 06:21:57 AM 48.9679 0.3040 99° East 468 539 35,500  Descending FlightAware UK
Thu 06:22:27 AM 48.9571 0.4061 99° East 526 605 37,000  Climbing FlightAware ADS-B
Thu 06:22:46 AM 48.9489 0.4793 99° East 468 539 35,500  Descending FlightAware UK
Thu 06:22:57 AM 48.9366 0.5106 99° East 508 585 37,000  Climbing FlightAware ADS-B
Thu 06:23:15 AM 48.9137 0.5714 99° East 468 539 35,500  Descending FlightAware UK
Thu 06:23:27 AM 48.9060 0.5940 99° East 502 578 37,000 4,091 Climbing FlightAware ADS-B
Thu 06:23:37 AM 48.8911 0.6316 121° Southeast 503 579 37,000  Level FlightAware ADS-B
Thu 06:23:46 AM 48.8773 0.6590 128° Southeast 490 564 37,000 -2,727 Level FlightAware ADS-B
Thu 06:24:10 AM 48.8395 0.7199 128° Southeast 464 534 35,500  Descending FlightAware UK
Thu 06:24:24 AM 48.8199 0.7524 128° Southeast 485 558 37,000  Climbing FlightAware ADS-B
Thu 06:24:40 AM 48.7939 0.7944 128° Southeast 466 536 35,500  Descending FlightAware UK
Thu 06:24:56 AM 48.7721 0.8345 128° Southeast 489 563 37,000  Climbing FlightAware ADS-B
Thu 06:25:16 AM 48.7467 0.8964 128° Southeast 464 534 35,500  Descending FlightAware UK
Thu 06:25:27 AM 48.7360 0.9251 128° Southeast 501 577 37,000  Climbing FlightAware ADS-B
Thu 06:25:46 AM 48.7129 0.9881 128° Southeast 464 534 35,500  Descending FlightAware UK
Thu 06:26:07 AM 48.6913 1.0472 128° Southeast 500 575 37,000  Climbing FlightAware ADS-B
Thu 06:26:22 AM 48.6726 1.0979 128° Southeast 464 534 35,500  Descending FlightAware UK
Thu 06:26:37 AM 48.6569 1.1405 128° Southeast 501 577 37,000  Climbing FlightAware ADS-B
Thu 06:27:04 AM 48.6254 1.2258 128° Southeast 464 534 35,500  Descending FlightAware UK
Thu 06:27:18 AM 48.6105 1.2649 128° Southeast 500 575 37,000  Climbing FlightAware ADS-B
Thu 06:27:40 AM 48.5844 1.3346 128° Southeast 464 534 35,500  Descending FlightAware UK
Thu 06:27:49 AM 48.5757 1.3575 128° Southeast 500 575 37,000  Climbing FlightAware ADS-B
Thu 06:28:04 AM 48.5572 1.4072 128° Southeast 468 539 35,500  Descending FlightAware UK
Thu 06:28:20 AM 48.5403 1.4520 128° Southeast 499 574 37,000  Climbing FlightAware ADS-B
Thu 06:28:40 AM 48.5161 1.5166 128° Southeast 462 532 35,500  Descending FlightAware UK
Thu 06:28:51 AM 48.5062 1.5439 128° Southeast 498 573 37,000  Climbing FlightAware ADS-B
Thu 06:29:10 AM 48.4828 1.6068 128° Southeast 462 532 35,500  Descending FlightAware UK
Thu 06:29:23 AM 48.4698 1.6416 128° Southeast 498 573 37,000  Climbing FlightAware ADS-B
Thu 06:29:40 AM 48.4489 1.6979 128° Southeast 468 539 35,500  Descending FlightAware UK
Thu 06:29:57 AM 48.4316 1.7434 128° Southeast 498 573 37,000  Climbing FlightAware ADS-B
Thu 06:30:16 AM 48.4085 1.8063 128° Southeast 466 536 35,500  Descending FlightAware UK
Thu 06:30:28 AM 48.3971 1.8356 128° Southeast 494 568 37,000 2,143 Climbing FlightAware ADS-B
Thu 06:30:58 AM 48.3629 1.9264 120° Southeast 491 565 37,000  Level FlightAware ADS-B
Thu 06:31:28 AM 48.3292 2.0158 120° Southeast 491 565 37,000  Level FlightAware ADS-B
Thu 06:32:00 AM 48.2983 2.1125 116° Southeast 494 568 37,000  Level FlightAware ADS-B
Thu 06:32:34 AM 48.2655 2.2181 115° Southeast 495 570 37,000  Level FlightAware ADS-B
Thu 06:33:17 AM 48.2250 2.3440 116° Southeast 494 568 37,000  Level FlightAware ADS-B
Thu 06:33:24 AM 48.2159 2.3729 115° Southeast 495 570 37,000  Level FlightAware ADS-B
Thu 06:33:54 AM 48.1859 2.4644 116° Southeast 495 570 37,000  Level FlightAware ADS-B
Thu 06:34:07 AM 48.1709 2.5040 120° Southeast 491 565 37,000  Level FlightAware ADS-B
Thu 06:34:38 AM 48.1309 2.5911 125° Southeast 485 558 37,000  Level FlightAware ADS-B
Thu 06:35:07 AM 48.0896 2.6646 130° Southeast 481 554 37,000  Level FlightAware ADS-B
Thu 06:36:02 AM 48.0090 2.7770 137° Southeast 471 542 37,000  Level FlightAware ADS-B
Thu 06:36:19 AM 47.9723 2.8174 144° Southeast 480 552 37,000  Level FlightAware ADS-B
Thu 06:36:24 AM 47.9634 2.8265 146° Southeast 465 535 37,000  Level FlightAware ADS-B
Thu 06:37:00 AM 47.8970 2.8848 150° Southeast 464 534 37,000  Level FlightAware ADS-B
Thu 06:37:19 AM 47.8610 2.9106 154° Southeast 454 522 37,000  Level FlightAware ADS-B
Thu 06:37:51 AM 47.8001 2.9515 156° South 457 526 37,000  Level FlightAware ADS-B
Thu 06:38:16 AM 47.7533 2.9886 152° Southeast 464 534 37,000  Level FlightAware ADS-B
Thu 06:38:25 AM 47.7370 3.0078 141° Southeast 475 547 37,000  Level FlightAware ADS-B
Thu 06:38:56 AM 47.6909 3.0837 132° Southeast 484 557 37,000  Level FlightAware ADS-B
Thu 06:39:32 AM 47.6440 3.1640 131° Southeast 486 559 37,000  Level FlightAware ADS-B
Thu 06:40:10 AM 47.5816 3.2675 132° Southeast 490 564 37,000  Level FlightAware ADS-B
Thu 06:40:52 AM 47.5230 3.3650 132° Southeast 492 566 37,000  Level FlightAware ADS-B
Thu 06:41:42 AM 47.4500 3.4860 132° Southeast 492 566 37,000  Level FlightAware ADS-B
Thu 06:42:22 AM 47.3870 3.5910 132° Southeast 493 567 37,000  Level FlightAware ADS-B
Thu 06:42:46 AM 47.3451 3.6594 132° Southeast 493 567 37,000  Level FlightAware ADS-B
Thu 06:43:14 AM 47.3055 3.7326 129° Southeast 500 575 37,000  Level FlightAware ADS-B
Thu 06:43:49 AM 47.2614 3.8306 124° Southeast 500 575 37,000  Level FlightAware ADS-B
Thu 06:44:19 AM 47.2229 3.9160 124° Southeast 500 575 37,000  Level FlightAware ADS-B
Thu 06:44:56 AM 47.1758 4.0200 124° Southeast 501 577 37,000  Level FlightAware ADS-B
Thu 06:45:27 AM 47.1358 4.1079 124° Southeast 501 577 37,000  Level FlightAware ADS-B
Thu 06:46:02 AM 47.0909 4.2065 124° Southeast 500 575 37,000  Level FlightAware ADS-B
Thu 06:46:34 AM 47.0497 4.2964 124° Southeast 500 575 37,000  Level FlightAware ADS-B
Thu 06:47:04 AM 47.0103 4.3822 124° Southeast 501 577 37,000  Level FlightAware ADS-B
Thu 06:47:40 AM 46.9648 4.4811 124° Southeast 501 577 37,000  Level FlightAware ADS-B
Thu 06:48:37 AM 46.8950 4.6320 124° Southeast 502 578 37,000  Level FlightAware ADS-B
Thu 06:49:22 AM 46.8380 4.7550 124° Southeast 498 573 37,000  Level FlightAware ADS-B
Thu 06:50:02 AM 46.7840 4.8700 124° Southeast 494 568 37,000  Level FlightAware ADS-B
Thu 06:50:47 AM 46.7240 4.9980 124° Southeast 493 567 37,000  Level FlightAware ADS-B
Thu 06:51:27 AM 46.6780 5.1110 121° Southeast 497 572 37,000  Level FlightAware ADS-B
Thu 06:52:07 AM 46.6310 5.2270 121° Southeast 498 573 37,000  Level FlightAware ADS-B
Thu 06:52:52 AM 46.5800 5.3540 120° Southeast 501 577 37,000  Level FlightAware ADS-B
Thu 06:53:32 AM 46.5330 5.4710 120° Southeast 504 580 37,000  Level FlightAware ADS-B
Thu 06:54:17 AM 46.4780 5.6060 121° Southeast 505 581 37,000  Level FlightAware ADS-B
Thu 06:54:57 AM 46.4310 5.7200 121° Southeast 507 583 37,000  Level FlightAware ADS-B
Thu 06:55:37 AM 46.3840 5.8330 121° Southeast 507 583 37,000  Level FlightAware ADS-B
Thu 06:56:22 AM 46.3320 5.9680 119° Southeast 512 589 37,000  Level FlightAware ADS-B
Thu 06:57:02 AM 46.3070 6.0890 107° East 514 592 37,000  Level FlightAware ADS-B
Thu 06:57:47 AM 46.2760 6.2370 107° East 515 593 37,000  Level FlightAware ADS-B
Thu 06:58:27 AM 46.2480 6.3680 107° East 513 590 37,000  Level FlightAware ADS-B
Thu 06:59:07 AM 46.2200 6.4980 107° East 513 590 37,000  Level FlightAware ADS-B
Thu 06:59:47 AM 46.1920 6.6310 107° East 512 589 37,000  Level FlightAware ADS-B
Thu 07:00:32 AM 46.1600 6.7790 107° East 511 588 37,000  Level FlightAware ADS-B
Thu 07:01:12 AM 46.1310 6.9070 108° East 507 583 37,000  Level FlightAware ADS-B
Thu 07:01:57 AM 46.0760 7.0310 123° Southeast 502 578 37,000  Level FlightAware ADS-B
Thu 07:02:37 AM 46.0230 7.1420 124° Southeast 498 573 37,000  Level FlightAware ADS-B
Thu 07:03:22 AM 45.9620 7.2680 125° Southeast 503 579 37,000  Level FlightAware ADS-B
Thu 07:04:02 AM 45.9090 7.3800 124° Southeast 500 575 37,000  Level FlightAware ADS-B
Thu 07:04:42 AM 45.8610 7.4920 122° Southeast 501 577 37,000  Level FlightAware ADS-B
Thu 07:05:27 AM 45.8040 7.6200 123° Southeast 505 581 37,000  Level FlightAware ADS-B
Thu 07:06:07 AM 45.7570 7.7260 122° Southeast 505 581 37,000  Level FlightAware ADS-B
Thu 07:06:47 AM 45.7060 7.8410 122° Southeast 504 580 37,000  Level FlightAware ADS-B
Thu 07:07:37 AM 45.6410 7.9850 123° Southeast 505 581 37,000  Level FlightAware ADS-B
Thu 07:08:17 AM 45.5910 8.0950 123° Southeast 505 581 37,000  Level FlightAware ADS-B
Thu 07:08:57 AM 45.5410 8.2050 123° Southeast 506 582 37,000  Level FlightAware ADS-B
Thu 07:09:42 AM 45.4840 8.3320 123° Southeast 504 580 37,000  Level FlightAware ADS-B
Thu 07:10:22 AM 45.4350 8.4390 123° Southeast 503 579 37,000  Level FlightAware ADS-B
Thu 07:11:07 AM 45.3790 8.5600 123° Southeast 505 581 37,000  Level FlightAware ADS-B
Thu 07:11:47 AM 45.3190 8.6910 123° Southeast 506 582 37,000  Level FlightAware ADS-B
Thu 07:12:27 AM 45.2670 8.8010 124° Southeast 507 583 37,000  Level FlightAware ADS-B
Thu 07:13:12 AM 45.2100 8.9250 123° Southeast 508 585 37,000  Level FlightAware ADS-B
Thu 07:13:47 AM 45.1680 9.0150 123° Southeast 508 585 37,000  Level FlightAware ADS-B
Thu 07:16:00 AM 45.0502 9.3985 113° Southeast  Level Estimated
Thu 07:16:17 AM 44.9790 9.4170 113° Southeast 508 585 37,000  Level FlightAware ADS-B
Thu 07:17:02 AM 44.9210 9.5380 124° Southeast 507 583 37,000  Level FlightAware ADS-B
Thu 07:19:00 AM 44.8157 9.8763 114° Southeast  Level Estimated
Thu 07:19:07 AM 44.7540 9.8870 114° Southeast 503 579 37,000  Level FlightAware ADS-B
Thu 07:19:57 AM 44.6890 10.0210 124° Southeast 505 581 37,000  Level FlightAware ADS-B
Thu 07:20:37 AM 44.6330 10.1360 124° Southeast 505 581 37,000  Level FlightAware ADS-B
Thu 07:21:12 AM 44.5840 10.2360 125° Southeast 506 582 37,000  Level FlightAware ADS-B
Thu 07:22:02 AM 44.5220 10.3630 124° Southeast 504 580 37,000  Level FlightAware ADS-B
Thu 07:22:47 AM 44.4610 10.4870 125° Southeast 501 577 37,000  Level FlightAware ADS-B
Thu 07:23:22 AM 44.4190 10.5720 125° Southeast 500 575 37,000  Level FlightAware ADS-B
Thu 07:24:07 AM 44.3630 10.6840 125° Southeast 498 573 37,000  Level FlightAware ADS-B
Thu 07:24:47 AM 44.3040 10.8030 125° Southeast 497 572 37,000  Level FlightAware ADS-B
Thu 07:25:32 AM 44.2480 10.9160 125° Southeast 495 570 37,000  Level FlightAware ADS-B
Thu 07:26:12 AM 44.1940 11.0230 125° Southeast 496 571 37,000  Level FlightAware ADS-B
Thu 07:26:57 AM 44.1340 11.1420 125° Southeast 498 573 37,000  Level FlightAware ADS-B
Thu 07:27:37 AM 44.0840 11.2420 125° Southeast 498 573 37,000  Level FlightAware ADS-B
Thu 07:28:22 AM 44.0220 11.3630 125° Southeast 500 575 37,000  Level FlightAware ADS-B
Thu 07:28:52 AM 43.9830 11.4410 125° Southeast 500 575 37,000  Level FlightAware ADS-B
Thu 07:29:42 AM 43.9180 11.5590 127° Southeast 500 575 37,000  Level FlightAware ADS-B
Thu 07:30:32 AM 43.8520 11.6610 132° Southeast 501 577 37,000  Level FlightAware ADS-B
Thu 07:31:22 AM 43.7570 11.8060 132° Southeast 502 578 37,000  Level FlightAware ADS-B
Thu 07:32:02 AM 43.7010 11.8930 132° Southeast 497 572 37,000  Level FlightAware ADS-B
Thu 07:32:42 AM 43.6380 11.9890 132° Southeast 498 573 37,000  Level FlightAware ADS-B
Thu 07:33:37 AM 43.5510 12.1210 132° Southeast 497 572 37,000  Level FlightAware ADS-B
Thu 07:34:27 AM 43.4770 12.2310 133° Southeast 498 573 37,000  Level FlightAware ADS-B
Thu 07:35:02 AM 43.4180 12.3200 132° Southeast 498 573 37,000  Level FlightAware ADS-B
Thu 07:36:02 AM 43.4210 12.3150 310° West 497 572 37,000  Level FlightAware ADS-B
Thu 07:36:52 AM 43.2610 12.5550 132° Southeast 498 573 37,000  Level FlightAware ADS-B
Thu 07:37:32 AM 43.1820 12.6720 133° Southeast 505 581 37,000  Level FlightAware ADS-B
Thu 07:38:22 AM 43.1020 12.7890 133° Southeast 507 583 37,000  Level FlightAware ADS-B
Thu 07:39:02 AM 43.0380 12.8830 133° Southeast 508 585 37,000  Level FlightAware ADS-B
Thu 07:39:47 AM 42.9660 12.9890 133° Southeast 508 585 37,000  Level FlightAware ADS-B
Thu 07:40:27 AM 42.9050 13.0780 133° Southeast 510 587 37,000  Level FlightAware ADS-B
Thu 07:41:07 AM 42.8440 13.1670 133° Southeast 512 589 37,000  Level FlightAware ADS-B
Thu 07:41:42 AM 42.7880 13.2490 133° Southeast 506 582 37,000  Level FlightAware ADS-B
Thu 07:42:37 AM 42.6910 13.3880 133° Southeast 517 595 37,000  Level FlightAware ADS-B
Thu 07:43:17 AM 42.6280 13.4790 133° Southeast 517 595 37,000  Level FlightAware ADS-B
Thu 07:43:57 AM 42.5620 13.5740 133° Southeast 519 597 37,000  Level FlightAware ADS-B
Thu 07:44:42 AM 42.4880 13.6800 133° Southeast 522 601 37,000  Level FlightAware ADS-B
Thu 07:45:22 AM 42.4210 13.7750 134° Southeast 523 602 37,000  Level FlightAware ADS-B
Thu 07:45:57 AM 42.3660 13.8540 133° Southeast 523 602 37,000  Level FlightAware ADS-B
Thu 07:46:47 AM 42.2760 13.9810 134° Southeast 525 604 37,000  Level FlightAware ADS-B
Thu 07:47:27 AM 42.2080 14.0760 134° Southeast 528 608 37,000  Level FlightAware ADS-B
Thu 07:48:12 AM 42.1350 14.1790 134° Southeast 530 610 37,000  Level FlightAware ADS-B
Thu 07:48:52 AM 42.0670 14.2740 134° Southeast 527 606 37,000  Level FlightAware ADS-B
Thu 07:49:32 AM 41.9980 14.3700 134° Southeast 526 605 37,000  Level FlightAware ADS-B
Thu 07:50:17 AM 41.9220 14.4760 134° Southeast 516 594 37,000  Level FlightAware ADS-B
Thu 07:50:57 AM 41.8560 14.5690 134° Southeast 521 600 37,000  Level FlightAware ADS-B
Thu 07:51:37 AM 41.7900 14.6590 135° Southeast 517 595 37,000  Level FlightAware ADS-B
Thu 07:52:22 AM 41.7200 14.7560 134° Southeast 511 588 37,000  Level FlightAware ADS-B
Thu 07:53:02 AM 41.6490 14.8540 134° Southeast 514 592 37,000  Level FlightAware ADS-B
Thu 07:53:47 AM 41.5760 14.9540 134° Southeast 516 594 37,000  Level FlightAware ADS-B
Thu 07:54:27 AM 41.5100 15.0440 134° Southeast 516 594 37,000  Level FlightAware ADS-B
Thu 07:55:07 AM 41.4440 15.1330 135° Southeast 514 592 37,000  Level FlightAware ADS-B
Thu 07:55:52 AM 41.3650 15.2410 134° Southeast 512 589 37,000  Level FlightAware ADS-B
Thu 07:56:32 AM 41.2990 15.3300 135° Southeast 511 588 37,000  Level FlightAware ADS-B
Thu 07:57:17 AM 41.2280 15.4300 133° Southeast 505 581 37,000  Level FlightAware ADS-B
Thu 07:57:57 AM 41.1860 15.5390 117° Southeast 499 574 37,000  Level FlightAware ADS-B
Thu 07:58:37 AM 41.1460 15.6510 115° Southeast 498 573 37,000  Level FlightAware ADS-B
Thu 07:59:22 AM 41.1010 15.7770 115° Southeast 499 574 37,000  Level FlightAware ADS-B
Thu 07:59:57 AM 41.0670 15.8690 116° Southeast 496 571 37,000  Level FlightAware ADS-B
Thu 08:00:27 AM 41.0370 15.9520 116° Southeast 494 568 37,000  Level FlightAware ADS-B
Thu 08:01:07 AM 40.9980 16.0580 116° Southeast 491 565 37,000  Level FlightAware ADS-B
Thu 08:01:47 AM 40.9580 16.1670 116° Southeast 490 564 37,000  Level FlightAware ADS-B
Thu 08:02:27 AM 40.9180 16.2760 116° Southeast 491 565 37,000  Level FlightAware ADS-B
Thu 08:03:07 AM 40.8790 16.3810 116° Southeast 491 565 37,000  Level FlightAware ADS-B
Thu 08:03:47 AM 40.8390 16.4880 116° Southeast 487 560 37,000  Level FlightAware ADS-B
Thu 08:04:27 AM 40.8000 16.5940 116° Southeast 480 552 37,000  Level FlightAware ADS-B
Thu 08:05:07 AM 40.7600 16.7000 116° Southeast 480 552 37,000  Level FlightAware ADS-B
Thu 08:05:47 AM 40.7200 16.8050 117° Southeast 479 551 37,000  Level FlightAware ADS-B
Thu 08:06:32 AM 40.6760 16.9230 116° Southeast 477 549 37,000  Level FlightAware ADS-B
Thu 08:07:12 AM 40.6360 17.0280 117° Southeast 475 547 37,000  Level FlightAware ADS-B
Thu 08:07:57 AM 40.5930 17.1420 116° Southeast 474 545 37,000  Level FlightAware ADS-B
Thu 08:08:37 AM 40.5540 17.2430 117° Southeast 473 544 37,000  Level FlightAware ADS-B
Thu 08:09:17 AM 40.5140 17.3450 117° Southeast 475 547 37,000  Level FlightAware ADS-B
Thu 08:10:02 AM 40.4550 17.4520 126° Southeast 474 545 37,000  Level FlightAware ADS-B
Thu 08:10:42 AM 40.3950 17.5370 133° Southeast 472 543 37,000  Level FlightAware ADS-B
Thu 08:11:22 AM 40.3360 17.6200 133° Southeast 471 542 37,000  Level FlightAware ADS-B
Thu 08:12:07 AM 40.2690 17.7110 134° Southeast 471 542 37,000  Level FlightAware ADS-B
Thu 08:12:47 AM 40.2080 17.7930 134° Southeast 473 544 37,000  Level FlightAware ADS-B
Thu 08:13:32 AM 40.1390 17.8860 134° Southeast 471 542 37,000  Level FlightAware ADS-B
Thu 08:14:12 AM 40.0780 17.9680 134° Southeast 469 540 37,000  Level FlightAware ADS-B
Thu 08:14:42 AM 40.0330 18.0280 134° Southeast 469 540 37,000  Level FlightAware ADS-B
Thu 08:15:22 AM 39.9720 18.1100 134° Southeast 468 539 37,000  Level FlightAware ADS-B
Thu 08:16:07 AM 39.9060 18.1980 134° Southeast 466 536 37,000  Level FlightAware ADS-B
Thu 08:16:47 AM 39.8500 18.2710 135° Southeast 466 536 37,000  Level FlightAware ADS-B
Thu 08:17:22 AM 39.7920 18.3480 134° Southeast 463 533 37,000  Level FlightAware ADS-B
Thu 08:18:27 AM 39.7210 18.4420 134° Southeast 463 533 37,000  Level FlightAware ADS-B
Thu 08:19:07 AM 39.6610 18.5210 135° Southeast 463 533 37,000  Level FlightAware ADS-B
Thu 08:19:52 AM 39.5970 18.6050 135° Southeast 464 534 37,000  Level FlightAware ADS-B
Thu 08:20:32 AM 39.5340 18.6880 135° Southeast 466 536 37,000  Level FlightAware ADS-B
Thu 08:21:12 AM 39.4760 18.7640 135° Southeast 469 540 37,000  Level FlightAware ADS-B
Thu 08:21:57 AM 39.4060 18.8550 135° Southeast 471 542 37,000  Level FlightAware ADS-B
Thu 08:22:37 AM 39.3390 18.9410 135° Southeast 471 542 37,000  Level FlightAware ADS-B
Thu 08:23:17 AM 39.2790 19.0190 135° Southeast 473 544 37,000  Level FlightAware ADS-B
Thu 08:23:57 AM 39.2180 19.0990 135° Southeast 475 547 37,000  Level FlightAware ADS-B
Thu 08:24:37 AM 39.1570 19.1840 133° Southeast 472 543 37,000 67 Level FlightAware ADS-B
Thu 08:25:27 AM 39.0940 19.3030 124° Southeast 470 541 37,100 400 Climbing FlightAware ADS-B
Thu 08:26:07 AM 39.0450 19.3950 124° Southeast 467 537 37,600 900 Climbing FlightAware ADS-B
Thu 08:26:47 AM 38.9970 19.4860 124° Southeast 460 529 38,300 706 Climbing FlightAware ADS-B
Thu 08:27:32 AM 38.9480 19.5760 125° Southeast 459 528 38,600 333 Climbing FlightAware ADS-B
Thu 08:28:17 AM 38.8940 19.6770 124° Southeast 462 532 38,800 212 Climbing FlightAware ADS-B
Thu 08:28:57 AM 38.8450 19.7690 124° Southeast 465 535 38,900 150 Climbing FlightAware ADS-B
Thu 08:29:37 AM 38.7970 19.8580 125° Southeast 465 535 39,000 71 Climbing FlightAware ADS-B
Thu 08:30:22 AM 38.7390 19.9630 125° Southeast 464 534 39,000  Level FlightAware ADS-B
Thu 08:31:02 AM 38.6910 20.0520 125° Southeast 469 540 39,000  Level FlightAware ADS-B
Thu 08:31:42 AM 38.6400 20.1460 125° Southeast 467 537 39,000  Level FlightAware ADS-B
Thu 08:32:37 AM 38.5760 20.2650 125° Southeast 466 536 39,000  Level FlightAware ADS-B
Thu 08:33:17 AM 38.5350 20.3430 124° Southeast 466 536 39,000  Level FlightAware ADS-B
Thu 08:34:07 AM 38.4830 20.4400 124° Southeast 466 536 39,000  Level FlightAware ADS-B
Thu 08:34:47 AM 38.4420 20.5180 124° Southeast 466 536 39,000  Level FlightAware ADS-B
Thu 08:35:27 AM 38.4010 20.5950 124° Southeast 466 536 39,000  Level FlightAware ADS-B
Thu 08:36:12 AM 38.2890 20.7820 127° Southeast 459 528 39,000  Level FlightAware ADS-B
Thu 08:37:07 AM 38.2260 20.8990 124° Southeast 458 527 39,000  Level FlightAware ADS-B
Thu 08:37:47 AM 38.1850 20.9750 124° Southeast 458 527 39,000  Level FlightAware ADS-B
Thu 08:38:27 AM 38.1450 21.0510 124° Southeast 458 527 39,000  Level FlightAware ADS-B
Thu 08:39:17 AM 38.0950 21.1460 124° Southeast 458 527 39,000  Level FlightAware ADS-B
Thu 08:39:57 AM 38.0550 21.2220 124° Southeast 458 527 39,000  Level FlightAware ADS-B
Thu 08:40:37 AM 38.0140 21.2980 124° Southeast 458 527 39,000  Level FlightAware ADS-B
Thu 08:41:17 AM 37.9740 21.3730 124° Southeast 458 527 39,000  Level FlightAware ADS-B
Thu 08:42:17 AM 37.8350 21.5920 129° Southeast 465 535 39,000  Level FlightAware ADS-B
Thu 08:42:57 AM 37.7930 21.6670 125° Southeast 465 535 39,000  Level FlightAware ADS-B
Thu 08:43:42 AM 37.7240 21.7840 127° Southeast 468 539 39,000  Level FlightAware ADS-B
Thu 08:44:17 AM 37.6870 21.8480 126° Southeast 468 539 39,000  Level FlightAware ADS-B
Thu 08:45:07 AM 37.6180 21.9690 126° Southeast 466 536 39,000  Level FlightAware ADS-B
Thu 08:45:47 AM 37.5650 22.0600 126° Southeast 466 536 39,000  Level FlightAware ADS-B
Thu 08:46:27 AM 37.5160 22.1460 126° Southeast 466 536 39,000  Level FlightAware ADS-B
Thu 08:47:22 AM 37.4450 22.2680 126° Southeast 466 536 39,000  Level FlightAware ADS-B
Thu 08:48:02 AM 37.4020 22.3470 124° Southeast 467 537 39,000  Level FlightAware ADS-B
Thu 08:48:42 AM 37.3660 22.4530 113° Southeast 467 537 39,000  Level FlightAware ADS-B
Thu 08:49:27 AM 37.3200 22.5420 123° Southeast 467 537 39,000  Level FlightAware ADS-B
Thu 08:50:12 AM 37.2920 22.6820 104° East 466 536 39,000  Level FlightAware ADS-B
Thu 08:50:52 AM 37.2610 22.7750 113° Southeast 466 536 39,000  Level FlightAware ADS-B
Thu 08:51:37 AM 37.2300 22.8730 112° Southeast 466 536 39,000  Level FlightAware ADS-B
Thu 08:52:12 AM 37.1940 22.9780 113° Southeast 39,000  Level FlightAware ADS-B
Thu 08:53:17 AM 37.1430 23.1320 113° Southeast 462 532 39,000  Level FlightAware ADS-B
Thu 08:53:57 AM 37.1140 23.2160 113° Southeast 462 532 39,000  Level FlightAware ADS-B
Thu 08:54:42 AM 37.0740 23.3380 112° Southeast 462 532 39,000  Level FlightAware ADS-B
Thu 08:55:22 AM 37.0450 23.4220 113° Southeast 462 532 39,000  Level FlightAware ADS-B
Thu 08:56:02 AM 37.0170 23.5060 113° Southeast 462 532 39,000  Level FlightAware ADS-B
Thu 08:56:42 AM 36.9890 23.5900 113° Southeast 462 532 39,000  Level FlightAware ADS-B
Thu 08:57:42 AM 36.9220 23.7890 113° Southeast 39,000  Level FlightAware ADS-B
Thu 08:58:37 AM 36.8780 23.9180 113° Southeast 453 521 39,000  Level FlightAware ADS-B
Thu 08:59:17 AM 36.8430 24.0180 114° Southeast 452 520 39,000  Level FlightAware ADS-B
Thu 08:59:57 AM 36.8130 24.1070 113° Southeast 452 520 39,000  Level FlightAware ADS-B
Thu 09:00:32 AM 36.7830 24.1930 114° Southeast 454 522 39,000  Level FlightAware ADS-B
Thu 09:01:27 AM 36.7360 24.3310 113° Southeast 454 522 39,000  Level FlightAware ADS-B
Thu 09:02:07 AM 36.7040 24.4220 114° Southeast 454 522 39,000  Level FlightAware ADS-B
Thu 09:02:42 AM 36.6750 24.5050 114° Southeast 454 522 39,000  Level FlightAware ADS-B
Thu 09:03:32 AM 36.6310 24.6300 114° Southeast 452 520 39,000  Level FlightAware ADS-B
Thu 09:04:12 AM 36.5990 24.7240 113° Southeast 451 519 39,000  Level FlightAware ADS-B
Thu 09:04:57 AM 36.5620 24.8280 114° Southeast 448 516 39,000  Level FlightAware ADS-B
Thu 09:05:37 AM 36.5290 24.9220 114° Southeast 446 513 39,000  Level FlightAware ADS-B
Thu 09:06:17 AM 36.4960 25.0160 114° Southeast 444 511 39,000  Level FlightAware ADS-B
Thu 09:07:02 AM 36.4580 25.1240 114° Southeast 445 512 39,000  Level FlightAware ADS-B
Thu 09:07:42 AM 36.4250 25.2140 114° Southeast 446 513 39,000  Level FlightAware ADS-B
Thu 09:08:27 AM 36.3870 25.3210 114° Southeast 444 511 39,000  Level FlightAware ADS-B
Thu 09:09:07 AM 36.3540 25.4130 114° Southeast 441 507 39,000  Level FlightAware ADS-B
Thu 09:09:42 AM 36.3250 25.4940 114° Southeast 441 507 39,000  Level FlightAware ADS-B
Thu 09:10:17 AM 36.2960 25.5750 114° Southeast 444 511 39,000  Level FlightAware ADS-B
Thu 09:10:57 AM 36.2620 25.6690 114° Southeast 443 510 39,000  Level FlightAware ADS-B
Thu 09:11:42 AM 36.2250 25.7710 114° Southeast 443 510 39,000  Level FlightAware ADS-B
Thu 09:12:22 AM 36.1900 25.8670 114° Southeast 443 510 39,000  Level FlightAware ADS-B
Thu 09:12:57 AM 36.1610 25.9480 114° Southeast 443 510 39,000  Level FlightAware ADS-B
Thu 09:13:52 AM 36.1140 26.0760 114° Southeast 444 511 39,000  Level FlightAware ADS-B
Thu 09:14:42 AM 36.0720 26.1900 114° Southeast 440 506 39,000  Level FlightAware ADS-B
Thu 09:15:22 AM 36.0390 26.2810 114° Southeast 443 510 39,000  Level FlightAware ADS-B
Thu 09:16:07 AM 36.0000 26.3870 114° Southeast 439 505 39,000  Level FlightAware ADS-B
Thu 09:17:32 AM 35.9280 26.5810 115° Southeast 439 505 39,000  Level FlightAware ADS-B
Thu 09:18:12 AM 35.8930 26.6740 115° Southeast 440 506 39,000  Level FlightAware ADS-B
Thu 09:18:47 AM 35.8670 26.7430 115° Southeast 441 507 39,000  Level FlightAware ADS-B
Thu 09:19:32 AM 35.8280 26.8470 115° Southeast 442 509 39,000  Level FlightAware ADS-B
Thu 09:20:17 AM 35.7860 26.9600 115° Southeast 445 512 39,000  Level FlightAware ADS-B
Thu 09:21:02 AM 35.7480 27.0610 115° Southeast 446 513 39,000  Level FlightAware ADS-B
Thu 09:21:57 AM 35.6980 27.1910 115° Southeast 446 513 39,000  Level FlightAware ADS-B
Thu 09:22:52 AM 35.6540 27.3110 114° Southeast 446 513 39,000  Level FlightAware ADS-B
Thu 09:23:32 AM 35.6250 27.3900 114° Southeast 446 513 39,000  Level FlightAware ADS-B
Thu 09:24:32 AM 35.5620 27.5480 116° Southeast 446 513 39,000  Level FlightAware ADS-B
Thu 09:25:12 AM 35.5300 27.6310 115° Southeast 450 518 39,000  Level FlightAware ADS-B
Thu 09:25:57 AM 35.4880 27.7410 115° Southeast 456 525 39,000  Level FlightAware ADS-B
Thu 09:26:52 AM 35.4380 27.8690 116° Southeast 459 528 39,000  Level FlightAware ADS-B
Thu 09:27:22 AM 35.4120 27.9380 115° Southeast 459 528 39,000  Level FlightAware ADS-B
Thu 09:28:17 AM 35.3610 28.0660 116° Southeast 448 516 39,000  Level FlightAware ADS-B
Thu 09:28:57 AM 35.3260 28.1560 115° Southeast 444 511 39,000  Level FlightAware ADS-B
Thu 09:29:37 AM 35.2900 28.2490 115° Southeast 444 511 39,000  Level FlightAware ADS-B
Thu 09:30:22 AM 35.2480 28.3540 116° Southeast 445 512 39,000  Level FlightAware ADS-B
Thu 09:31:02 AM 35.2130 28.4430 116° Southeast 447 514 39,000  Level FlightAware ADS-B
Thu 09:31:47 AM 35.1740 28.5430 115° Southeast 447 514 39,000  Level FlightAware ADS-B
Thu 09:32:27 AM 35.1370 28.6350 116° Southeast 447 514 39,000  Level FlightAware ADS-B
Thu 09:33:07 AM 35.1040 28.7200 115° Southeast 449 517 39,000  Level FlightAware ADS-B
Thu 09:33:47 AM 35.0740 28.7990 115° Southeast 449 517 39,000  Level FlightAware ADS-B
Thu 09:34:32 AM 35.0230 28.9210 117° Southeast 444 511 39,000  Level FlightAware ADS-B
Thu 09:35:12 AM 34.9870 29.0110 116° Southeast 444 511 39,000  Level FlightAware ADS-B
Thu 09:35:57 AM 34.9480 29.1090 116° Southeast 445 512 39,000  Level FlightAware ADS-B
Thu 09:36:32 AM 34.9190 29.1810 116° Southeast 445 512 39,000  Level FlightAware ADS-B
Thu 09:37:22 AM 34.8800 29.2770 116° Southeast 445 512 39,000  Level FlightAware ADS-B
Thu 09:37:52 AM 34.8470 29.3580 116° Southeast 446 513 39,000  Level FlightAware ADS-B
Thu 09:38:42 AM 34.8000 29.4730 116° Southeast 445 512 39,000  Level FlightAware ADS-B
Thu 09:39:22 AM 34.7640 29.5620 116° Southeast 447 514 39,000  Level FlightAware ADS-B
Thu 09:40:07 AM 34.7190 29.6710 117° Southeast 450 518 39,000  Level FlightAware ADS-B
Thu 09:40:52 AM 34.6780 29.7700 117° Southeast 450 518 39,000  Level FlightAware ADS-B
Thu 09:41:22 AM 34.6480 29.8450 116° Southeast 451 519 39,000  Level FlightAware ADS-B
Thu 09:42:17 AM 34.6060 29.9550 115° Southeast 451 519 39,000  Level FlightAware ADS-B
Thu 09:42:57 AM 34.5760 30.0330 115° Southeast 451 519 39,000  Level FlightAware ADS-B
Thu 09:44:17 AM 34.4700 30.2260 124° Southeast 39,000  Level FlightAware ADS-B
Thu 09:45:17 AM 34.4030 30.3640 120° Southeast 452 520 39,000  Level FlightAware ADS-B
Thu 09:46:27 AM 34.3310 30.5150 120° Southeast 454 522 39,000  Level FlightAware ADS-B
Thu 09:47:37 AM 34.2560 30.6710 120° Southeast 457 526 39,000  Level FlightAware ADS-B
Thu 09:49:27 AM 34.1430 30.9040 120° Southeast 456 525 39,000  Level FlightAware ADS-B
Thu 09:50:02 AM 34.1050 30.9830 120° Southeast 453 521 39,000  Level FlightAware ADS-B
Thu 09:50:52 AM 34.0510 31.0920 121° Southeast 453 521 39,000  Level FlightAware ADS-B
Thu 09:51:32 AM 34.0080 31.1800 120° Southeast 453 521 39,000  Level FlightAware ADS-B
Thu 09:52:12 AM 33.9650 31.2670 121° Southeast 454 522 39,000  Level FlightAware ADS-B
Thu 09:52:57 AM 33.9170 31.3650 121° Southeast 456 525 39,000  Level FlightAware ADS-B
Thu 09:54:07 AM 33.8410 31.5190 121° Southeast 457 526 39,000  Level FlightAware ADS-B
Thu 09:54:52 AM 33.7900 31.6210 121° Southeast 457 526 39,000  Level FlightAware ADS-B
Thu 09:55:32 AM 33.7470 31.7090 120° Southeast 458 527 39,000  Level FlightAware ADS-B
Thu 09:56:12 AM 33.7040 31.7960 121° Southeast 458 527 39,000  Level FlightAware ADS-B
Thu 09:56:57 AM 33.6530 31.8970 121° Southeast 458 527 39,000  Level FlightAware ADS-B
Thu 09:57:37 AM 33.6070 31.9880 121° Southeast 458 527 39,000  Level FlightAware ADS-B
Thu 09:58:22 AM 33.5580 32.0870 121° Southeast 463 533 39,000  Level FlightAware ADS-B
Thu 09:59:02 AM 33.5140 32.1750 121° Southeast 464 534 39,000  Level FlightAware ADS-B
Thu 09:59:42 AM 33.4680 32.2660 121° Southeast 462 532 39,000  Level FlightAware ADS-B
Thu 10:00:22 AM 33.4250 32.3500 122° Southeast 461 531 39,000  Level FlightAware ADS-B
Thu 10:01:07 AM 33.3750 32.4480 121° Southeast 460 529 39,000  Level FlightAware ADS-B
Thu 10:02:12 AM 33.3030 32.5910 121° Southeast 459 528 39,000  Level FlightAware ADS-B
Thu 10:02:47 AM 33.2670 32.6610 122° Southeast 460 529 39,000  Level FlightAware ADS-B
Thu 10:03:27 AM 33.2200 32.7540 121° Southeast 462 532 39,000  Level FlightAware ADS-B
Thu 10:04:07 AM 33.1760 32.8380 122° Southeast 464 534 39,000  Level FlightAware ADS-B
Thu 10:04:57 AM 33.1190 32.9490 121° Southeast 462 532 39,000  Level FlightAware ADS-B
Thu 10:05:47 AM 33.0650 33.0540 122° Southeast 463 533 39,000  Level FlightAware ADS-B
Thu 10:06:32 AM 33.0120 33.1560 122° Southeast 465 535 39,000  Level FlightAware ADS-B
Thu 10:07:27 AM 32.9550 33.2670 121° Southeast 466 536 39,000  Level FlightAware ADS-B
Thu 10:08:12 AM 32.8990 33.3750 122° Southeast 471 542 39,000  Level FlightAware ADS-B
Thu 10:08:52 AM 32.8590 33.4690 117° Southeast 474 545 39,000  Level FlightAware ADS-B
Thu 10:09:32 AM 32.8200 33.5590 117° Southeast 474 545 39,000 -424 Level FlightAware ADS-B
Thu 10:10:17 AM 32.7750 33.6600 118° Southeast 474 545 38,400 -847 Descending FlightAware ADS-B
Thu 10:10:57 AM 32.7340 33.7530 118° Southeast 466 536 37,800 -988 Descending FlightAware ADS-B
Thu 10:11:42 AM 32.6860 33.8610 118° Southeast 481 554 37,000 -988 Descending FlightAware ADS-B
Thu 10:12:22 AM 32.6460 33.9510 118° Southeast 479 551 36,400 -1,575 Descending FlightAware ADS-B
Thu 10:13:02 AM 32.6040 34.0460 118° Southeast 494 568 34,900 -2,541 Descending FlightAware ADS-B
Thu 10:13:47 AM 32.5570 34.1520 118° Southeast 498 573 32,800 -2,612 Descending FlightAware ADS-B
Thu 10:14:27 AM 32.5140 34.2460 118° Southeast 486 559 31,200 -2,625 Descending FlightAware ADS-B
Thu 10:15:07 AM 32.4710 34.3410 118° Southeast 483 556 29,300 -2,894 Descending FlightAware ADS-B
Thu 10:15:52 AM 32.4240 34.4470 118° Southeast 478 550 27,100 -2,612 Descending FlightAware ADS-B
Thu 10:16:32 AM 32.3850 34.5330 118° Southeast 467 537 25,600 -2,541 Descending FlightAware ADS-B
Thu 10:17:17 AM 32.3380 34.6360 118° Southeast 458 527 23,500 -2,753 Descending FlightAware ADS-B
Thu 10:17:57 AM 32.3010 34.7170 118° Southeast 455 524 21,700 -2,400 Descending FlightAware ADS-B
Thu 10:18:37 AM 32.2580 34.8120 118° Southeast 436 502 20,300 -2,188 Descending FlightAware ADS-B
Thu 10:19:22 AM 32.2160 34.9040 118° Southeast 424 488 18,600 -1,575 Descending FlightAware ADS-B
Thu 10:19:57 AM 32.1860 34.9690 119° Southeast 424 488 18,200 -1,906 Descending FlightAware ADS-B
Thu 10:20:47 AM 32.1430 35.0650 118° Southeast 402 463 15,900 -2,541 Descending FlightAware ADS-B
Thu 10:21:22 AM 32.1110 35.1330 119° Southeast 397 457 14,600 -2,025 Descending FlightAware ADS-B
Thu 10:22:07 AM 32.0740 35.2120 119° Southeast 389 448 13,200 -1,667 Descending FlightAware ADS-B
Thu 10:22:52 AM 32.0340 35.3000 118° Southeast 370 426 12,100 -1,275 Descending FlightAware ADS-B
Thu 10:23:27 AM 32.0070 35.3590 118° Southeast 365 420 11,500 -675 Descending FlightAware ADS-B
Thu 10:24:12 AM 31.9710 35.4360 119° Southeast 366 421 11,200 -267 Descending FlightAware ADS-B
Thu 10:24:57 AM 31.9330 35.5190 118° Southeast 367 422 11,100 -253 Descending FlightAware ADS-B
Thu 10:25:47 AM 31.9030 35.5980 114° Southeast 365 420 10,800 -1,624 Descending FlightAware ADS-B
Thu 10:26:22 AM 31.8810 35.6760 108° East 356 410 8,800 -3,000 Descending FlightAware ADS-B
Thu 10:26:37 AM 31.8740 35.7010 108° East 355 409 8,300 -750 Descending FlightAware ADS-B
Thu 10:27:02 AM 31.8620 35.7450 108° East 355 409 8,300 -1,091 Level FlightAware ADS-B
Thu 10:27:32 AM 31.8460 35.8000 109° East 332 382 7,300 -1,600 Descending FlightAware ADS-B
Thu 10:28:02 AM 31.8310 35.8520 109° East 306 352 6,700 -900 Descending FlightAware ADS-B
Thu 10:28:32 AM 31.8190 35.8970 107° East 266 306 6,400 -655 Descending FlightAware ADS-B
Thu 10:28:57 AM 31.8090 35.9300 110° East 247 284 6,100 -764 Descending FlightAware ADS-B
Thu 10:29:27 AM 31.8000 35.9650 107° East 221 254 5,700 -764 Descending FlightAware ADS-B
Thu 10:29:52 AM 31.7920 35.9930 109° East 197 227 5,400 -900 Descending FlightAware ADS-B
Thu 10:30:07 AM 31.7890 36.0090 102° East 191 220 5,100 -1,200 Descending FlightAware ADS-B
Thu 10:30:37 AM 31.7850 36.0380 99° East 187 215 4,500 -1,309 Descending FlightAware ADS-B
Thu 10:31:02 AM 31.7830 36.0630 95° East 188 216 3,900 -1,050 Descending FlightAware ADS-B
Thu 10:31:17 AM 31.7770 36.0780 115° Southeast 186 214 3,800  Descending FlightAware ADS-B
Thu 10:31:32 AM 31.7660 36.0840 155° Southeast 177 204 3,900  Climbing FlightAware ADS-B
Thu 10:32:02 AM 31.7410 36.0820 184° South 177 204 3,800 -436 Descending FlightAware ADS-B
Thu 10:32:27 AM 31.7270 36.0680 220° Southwest 154 177 3,500 -900 Descending FlightAware ADS-B
Thu 10:32:42 AM 31.7250 36.0580 257° West 152 175 3,200 -480 Descending FlightAware ADS-B
Thu 10:33:17 AM 31.7220 36.0310 263° West 145 167 3,100 -171 Descending FlightAware ADS-B
Thu 10:35:00 AM 31.7167 36.0000 131° Southeast  Level FlightAware Approximate
Thu 10:36:00 AM 31.7226 35.9932 131° Southeast  Level Estimated
Thu 10:37:00 AM 31.7226 35.9932 131° Southeast  Level Estimated
Thu 10:38:00 AM 31.7226 35.9932 131° Southeast  Level Estimated
Thu 10:39:00 AM 31.7226 35.9932 131° Southeast  Level Estimated
Thu 10:40:00 AM 31.7226 35.9932 131° Southeast  Level Estimated
Thu 10:41:00 AM 31.7226 35.9932 131° Southeast  Level Estimated
Thu 10:42:00 AM 31.7226 35.9932 131° Southeast  Level Estimated
Thu 10:43:00 AM 31.7226 35.9932 131° Southeast  Level Estimated
Thu 10:44:00 AM 31.7226 35.9932 131° Southeast  Level Estimated
Thu 10:45:00 AM 31.7226 35.9932 131° Southeast  Level Estimated

Login

Don't have an account? Register now (free) for customized features, flight alerts, and more!